<?xml version="1.0" encoding="UTF-8" standalone="no" ?><gpx xmlns="http://www.topografix.com/GPX/1/1" xmlns:gpxx="http://www.garmin.com/xmlschemas/GpxExtensions/v3" xmlns:gpxtrkx="http://www.garmin.com/xmlschemas/TrackStatsExtension/v1" xmlns:wptx1="http://www.garmin.com/xmlschemas/WaypointExtension/v1" xmlns:gpxtpx="http://www.garmin.com/xmlschemas/TrackPointExtension/v1" creator="GPSMAP 64" version="1.1" xmlns:xsi="http://www.w3.org/2001/XMLSchema-instance" xsi:schemaLocation="http://www.topografix.com/GPX/1/1 http://www.topografix.com/GPX/1/1/gpx.xsd http://www.garmin.com/xmlschemas/GpxExtensions/v3 http://www8.garmin.com/xmlschemas/GpxExtensionsv3.xsd http://www.garmin.com/xmlschemas/TrackStatsExtension/v1 http://www8.garmin.com/xmlschemas/TrackStatsExtension.xsd http://www.garmin.com/xmlschemas/WaypointExtension/v1 http://www8.garmin.com/xmlschemas/WaypointExtensionv1.xsd http://www.garmin.com/xmlschemas/TrackPointExtension/v1 http://www.garmin.com/xmlschemas/TrackPointExtensionv1.xsd"><metadata><link href="http://www.garmin.com"><text>Garmin International</text></link><time>2026-08-15T11:07:58Z</time></metadata><trk><name>20260815-ЛИСА20</name><extensions><gpxx:TrackExtension><gpxx:DisplayColor>Green</gpxx:DisplayColor></gpxx:TrackExtension><gpxtrkx:TrackStatsExtension><gpxtrkx:Distance>9189.000</gpxtrkx:Distance><gpxtrkx:TotalElapsedTime>15124</gpxtrkx:TotalElapsedTime><gpxtrkx:MovingTime>10871</gpxtrkx:MovingTime><gpxtrkx:StoppedTime>4246</gpxtrkx:StoppedTime><gpxtrkx:MovingSpeed>0.845</gpxtrkx:MovingSpeed><gpxtrkx:MaxSpeed>331.340</gpxtrkx:MaxSpeed><gpxtrkx:MaxElevation>3808.585</gpxtrkx:MaxElevation><gpxtrkx:MinElevation>-1350.821</gpxtrkx:MinElevation><gpxtrkx:Ascent>100888.000</gpxtrkx:Ascent><gpxtrkx:Descent>105576.469</gpxtrkx:Descent><gpxtrkx:AvgAscentRate>0.055</gpxtrkx:AvgAscentRate><gpxtrkx:MaxAscentRate>6.857</gpxtrkx:MaxAscentRate><gpxtrkx:AvgDescentRate>0.059</gpxtrkx:AvgDescentRate><gpxtrkx:MaxDescentRate>-5.071</gpxtrkx:MaxDescentRate></gpxtrkx:TrackStatsExtension></extensions><trkseg><trkpt lat="59.3504960742" lon="34.6994532086"><ele>165.02</ele><time>2026-08-15T06:55:54Z</time></trkpt><trkpt lat="59.3505232316" lon="34.6994765103"><ele>162.95</ele><time>2026-08-15T06:55:56Z</time></trkpt><trkpt lat="59.3505383190" lon="34.6994122211"><ele>159.69</ele><time>2026-08-15T06:56:04Z</time></trkpt><trkpt lat="59.3505569268" lon="34.6993763465"><ele>159.43</ele><time>2026-08-15T06:56:31Z</time></trkpt><trkpt lat="59.3505614530" lon="34.6993974689"><ele>159.97</ele><time>2026-08-15T06:56:58Z</time></trkpt><trkpt lat="59.3505485449" lon="34.6993913502"><ele>160.63</ele><time>2026-08-15T06:57:32Z</time></trkpt><trkpt lat="59.3505530711" lon="34.6994081978"><ele>161.48</ele><time>2026-08-15T06:58:01Z</time></trkpt><trkpt lat="59.3505452760" lon="34.6993721556"><ele>161.17</ele><time>2026-08-15T06:58:32Z</time></trkpt><trkpt lat="59.3505135924" lon="34.6993528772"><ele>160.80</ele><time>2026-08-15T06:59:05Z</time></trkpt><trkpt lat="59.3505265843" lon="34.6993715689"><ele>161.17</ele><time>2026-08-15T06:59:35Z</time></trkpt><trkpt lat="59.3505286798" lon="34.6993818786"><ele>161.64</ele><time>2026-08-15T07:00:09Z</time></trkpt><trkpt lat="59.3505756184" lon="34.6994475927"><ele>162.03</ele><time>2026-08-15T07:00:28Z</time></trkpt><trkpt lat="59.3505748641" lon="34.6994454134"><ele>163.47</ele><time>2026-08-15T07:00:42Z</time></trkpt><trkpt lat="59.3505747803" lon="34.6994335111"><ele>163.29</ele><time>2026-08-15T07:00:51Z</time></trkpt><trkpt lat="59.3506503850" lon="34.6995542943"><ele>161.10</ele><time>2026-08-15T07:01:03Z</time></trkpt><trkpt lat="59.3506612815" lon="34.6995615028"><ele>161.95</ele><time>2026-08-15T07:01:22Z</time></trkpt><trkpt lat="59.3506492954" lon="34.6995523665"><ele>161.77</ele><time>2026-08-15T07:01:35Z</time></trkpt><trkpt lat="59.3505725171" lon="34.6994089521"><ele>162.38</ele><time>2026-08-15T07:01:55Z</time></trkpt><trkpt lat="59.3505782168" lon="34.6994083654"><ele>162.79</ele><time>2026-08-15T07:02:10Z</time></trkpt><trkpt lat="59.3505974952" lon="34.6995345131"><ele>162.25</ele><time>2026-08-15T07:02:33Z</time></trkpt><trkpt lat="59.3506641313" lon="34.6995799430"><ele>162.94</ele><time>2026-08-15T07:02:49Z</time></trkpt><trkpt lat="59.3506013509" lon="34.6994565614"><ele>163.96</ele><time>2026-08-15T07:03:07Z</time></trkpt><trkpt lat="59.3505663984" lon="34.6994130593"><ele>163.76</ele><time>2026-08-15T07:03:26Z</time></trkpt><trkpt lat="59.3505688291" lon="34.6994418092"><ele>162.46</ele><time>2026-08-15T07:03:53Z</time></trkpt><trkpt lat="59.3505679071" lon="34.6994019113"><ele>161.77</ele><time>2026-08-15T07:04:25Z</time></trkpt><trkpt lat="59.3505810667" lon="34.6994099580"><ele>161.36</ele><time>2026-08-15T07:04:55Z</time></trkpt><trkpt lat="59.3505673204" lon="34.6994004864"><ele>161.98</ele><time>2026-08-15T07:05:23Z</time></trkpt><trkpt lat="59.3505686615" lon="34.6994002350"><ele>162.29</ele><time>2026-08-15T07:05:44Z</time></trkpt><trkpt lat="59.3505735230" lon="34.6993957087"><ele>162.34</ele><time>2026-08-15T07:05:59Z</time></trkpt><trkpt lat="59.3505528197" lon="34.6993791964"><ele>161.63</ele><time>2026-08-15T07:06:08Z</time></trkpt><trkpt lat="59.3505446892" lon="34.6993719041"><ele>160.58</ele><time>2026-08-15T07:06:23Z</time></trkpt><trkpt lat="59.3505310267" lon="34.6993765142"><ele>158.99</ele><time>2026-08-15T07:06:39Z</time></trkpt><trkpt lat="59.3505297694" lon="34.6993597504"><ele>157.18</ele><time>2026-08-15T07:07:01Z</time></trkpt><trkpt lat="59.3505705893" lon="34.6994425636"><ele>157.63</ele><time>2026-08-15T07:07:20Z</time></trkpt><trkpt lat="59.3505788874" lon="34.6994428150"><ele>158.43</ele><time>2026-08-15T07:07:35Z</time></trkpt><trkpt lat="59.3506427575" lon="34.6995834634"><ele>158.98</ele><time>2026-08-15T07:07:52Z</time></trkpt><trkpt lat="59.3506434280" lon="34.6995763388"><ele>160.05</ele><time>2026-08-15T07:08:08Z</time></trkpt><trkpt lat="59.3506517261" lon="34.6995668672"><ele>160.69</ele><time>2026-08-15T07:08:36Z</time></trkpt><trkpt lat="59.3506435957" lon="34.6995380335"><ele>161.96</ele><time>2026-08-15T07:08:58Z</time></trkpt><trkpt lat="59.3506243173" lon="34.6994308289"><ele>161.91</ele><time>2026-08-15T07:09:13Z</time></trkpt><trkpt lat="59.3506161030" lon="34.6994303260"><ele>161.88</ele><time>2026-08-15T07:09:14Z</time></trkpt><trkpt lat="59.3505771272" lon="34.6994392108"><ele>161.47</ele><time>2026-08-15T07:09:24Z</time></trkpt><trkpt lat="59.3505863473" lon="34.6994273085"><ele>161.72</ele><time>2026-08-15T07:09:36Z</time></trkpt><trkpt lat="59.3505484611" lon="34.6993988100"><ele>161.94</ele><time>2026-08-15T07:10:00Z</time></trkpt><trkpt lat="59.3505324516" lon="34.6994248778"><ele>163.94</ele><time>2026-08-15T07:10:24Z</time></trkpt><trkpt lat="59.3505274225" lon="34.6994122211"><ele>162.99</ele><time>2026-08-15T07:10:45Z</time></trkpt><trkpt lat="59.3505314458" lon="34.6994056832"><ele>163.26</ele><time>2026-08-15T07:11:01Z</time></trkpt><trkpt lat="59.3505165260" lon="34.6994107962"><ele>164.06</ele><time>2026-08-15T07:11:29Z</time></trkpt><trkpt lat="59.3505305238" lon="34.6994216926"><ele>163.92</ele><time>2026-08-15T07:11:48Z</time></trkpt><trkpt lat="59.3505366426" lon="34.6994018275"><ele>163.70</ele><time>2026-08-15T07:12:13Z</time></trkpt><trkpt lat="59.3505501375" lon="34.6993792802"><ele>163.08</ele><time>2026-08-15T07:12:37Z</time></trkpt><trkpt lat="59.3505659793" lon="34.6994093712"><ele>162.98</ele><time>2026-08-15T07:13:08Z</time></trkpt><trkpt lat="59.3505635485" lon="34.6994218603"><ele>163.45</ele><time>2026-08-15T07:13:35Z</time></trkpt><trkpt lat="59.3505420908" lon="34.6994119696"><ele>163.30</ele><time>2026-08-15T07:13:59Z</time></trkpt><trkpt lat="59.3505267520" lon="34.6993859857"><ele>162.63</ele><time>2026-08-15T07:14:26Z</time></trkpt><trkpt lat="59.3505327031" lon="34.6993827168"><ele>162.05</ele><time>2026-08-15T07:15:05Z</time></trkpt><trkpt lat="59.3505534064" lon="34.6994718164"><ele>162.86</ele><time>2026-08-15T07:15:35Z</time></trkpt><trkpt lat="59.3506153487" lon="34.6996209305"><ele>162.61</ele><time>2026-08-15T07:15:55Z</time></trkpt><trkpt lat="59.3506240658" lon="34.6995727345"><ele>161.75</ele><time>2026-08-15T07:16:08Z</time></trkpt><trkpt lat="59.3506085593" lon="34.6994755883"><ele>161.49</ele><time>2026-08-15T07:16:26Z</time></trkpt><trkpt lat="59.3506298494" lon="34.6994340140"><ele>161.26</ele><time>2026-08-15T07:16:48Z</time></trkpt><trkpt lat="59.3506353814" lon="34.6994568966"><ele>161.26</ele><time>2026-08-15T07:16:50Z</time></trkpt><trkpt lat="59.3506702501" lon="34.6995737404"><ele>161.29</ele><time>2026-08-15T07:17:02Z</time></trkpt><trkpt lat="59.3506524805" lon="34.6995581500"><ele>161.33</ele><time>2026-08-15T07:17:29Z</time></trkpt><trkpt lat="59.3506731838" lon="34.6995625086"><ele>161.41</ele><time>2026-08-15T07:17:51Z</time></trkpt><trkpt lat="59.3505972438" lon="34.6994361933"><ele>161.30</ele><time>2026-08-15T07:18:06Z</time></trkpt><trkpt lat="59.3505704217" lon="34.6994192619"><ele>161.37</ele><time>2026-08-15T07:18:25Z</time></trkpt><trkpt lat="59.3505423423" lon="34.6994387917"><ele>162.72</ele><time>2026-08-15T07:18:52Z</time></trkpt><trkpt lat="59.3505535740" lon="34.6994108800"><ele>162.65</ele><time>2026-08-15T07:19:31Z</time></trkpt><trkpt lat="59.3505764566" lon="34.6993905120"><ele>162.39</ele><time>2026-08-15T07:20:19Z</time></trkpt><trkpt lat="59.3505643029" lon="34.6994159091"><ele>162.42</ele><time>2026-08-15T07:20:53Z</time></trkpt><trkpt lat="59.3505688291" lon="34.6994206868"><ele>163.05</ele><time>2026-08-15T07:21:21Z</time></trkpt><trkpt lat="59.3505872693" lon="34.6994237881"><ele>163.65</ele><time>2026-08-15T07:21:52Z</time></trkpt><trkpt lat="59.3505643867" lon="34.6994608361"><ele>164.63</ele><time>2026-08-15T07:22:25Z</time></trkpt><trkpt lat="59.3505373131" lon="34.6994647756"><ele>164.60</ele><time>2026-08-15T07:22:51Z</time></trkpt><trkpt lat="59.3505425937" lon="34.6994934417"><ele>164.59</ele><time>2026-08-15T07:22:57Z</time></trkpt><trkpt lat="59.3506720942" lon="34.6997330803"><ele>164.85</ele><time>2026-08-15T07:23:07Z</time></trkpt><trkpt lat="59.3509134930" lon="34.7005079873"><ele>165.46</ele><time>2026-08-15T07:23:27Z</time></trkpt><trkpt lat="59.3510290794" lon="34.7014120594"><ele>165.74</ele><time>2026-08-15T07:23:43Z</time></trkpt><trkpt lat="59.3510259781" lon="34.7021950129"><ele>164.39</ele><time>2026-08-15T07:23:57Z</time></trkpt><trkpt lat="59.3510339409" lon="34.7033254802"><ele>163.74</ele><time>2026-08-15T07:24:16Z</time></trkpt><trkpt lat="59.3510906026" lon="34.7045016289"><ele>163.42</ele><time>2026-08-15T07:24:34Z</time></trkpt><trkpt lat="59.3510916084" lon="34.7056595050"><ele>162.58</ele><time>2026-08-15T07:24:52Z</time></trkpt><trkpt lat="59.3511446659" lon="34.7067119367"><ele>164.60</ele><time>2026-08-15T07:25:08Z</time></trkpt><trkpt lat="59.3513426464" lon="34.7075499594"><ele>163.33</ele><time>2026-08-15T07:25:23Z</time></trkpt><trkpt lat="59.3517627474" lon="34.7076891828"><ele>164.46</ele><time>2026-08-15T07:25:35Z</time></trkpt><trkpt lat="59.3519074190" lon="34.7077201959"><ele>162.39</ele><time>2026-08-15T07:25:47Z</time></trkpt><trkpt lat="59.3519266136" lon="34.7077455092"><ele>163.28</ele><time>2026-08-15T07:26:09Z</time></trkpt><trkpt lat="59.3521115184" lon="34.7078585811"><ele>163.99</ele><time>2026-08-15T07:26:29Z</time></trkpt><trkpt lat="59.3521489855" lon="34.7077647876"><ele>164.07</ele><time>2026-08-15T07:26:32Z</time></trkpt><trkpt lat="59.3522717804" lon="34.7070103325"><ele>163.02</ele><time>2026-08-15T07:26:46Z</time></trkpt><trkpt lat="59.3523265980" lon="34.7065133695"><ele>159.90</ele><time>2026-08-15T07:26:57Z</time></trkpt><trkpt lat="59.3525747024" lon="34.7057772707"><ele>159.18</ele><time>2026-08-15T07:27:14Z</time></trkpt><trkpt lat="59.3528594356" lon="34.7051481251"><ele>161.49</ele><time>2026-08-15T07:27:30Z</time></trkpt><trkpt lat="59.3531736732" lon="34.7045815084"><ele>163.89</ele><time>2026-08-15T07:27:48Z</time></trkpt><trkpt lat="59.3532805424" lon="34.7038231976"><ele>162.54</ele><time>2026-08-15T07:28:04Z</time></trkpt><trkpt lat="59.3532812130" lon="34.7029337101"><ele>159.81</ele><time>2026-08-15T07:28:22Z</time></trkpt><trkpt lat="59.3533129804" lon="34.7020923346"><ele>160.07</ele><time>2026-08-15T07:28:39Z</time></trkpt><trkpt lat="59.3534164969" lon="34.7012779489"><ele>157.52</ele><time>2026-08-15T07:28:56Z</time></trkpt><trkpt lat="59.3534770142" lon="34.7005214822"><ele>156.09</ele><time>2026-08-15T07:29:13Z</time></trkpt><trkpt lat="59.3535872363" lon="34.6997511014"><ele>156.82</ele><time>2026-08-15T07:29:30Z</time></trkpt><trkpt lat="59.3536737375" lon="34.6991579980"><ele>156.48</ele><time>2026-08-15T07:29:46Z</time></trkpt><trkpt lat="59.3537630886" lon="34.6988917049"><ele>155.75</ele><time>2026-08-15T07:29:55Z</time></trkpt><trkpt lat="59.3540987000" lon="34.6979466453"><ele>155.48</ele><time>2026-08-15T07:30:28Z</time></trkpt><trkpt lat="59.3541589659" lon="34.6971172560"><ele>156.19</ele><time>2026-08-15T07:30:50Z</time></trkpt><trkpt lat="59.3540608976" lon="34.6963726077"><ele>158.90</ele><time>2026-08-15T07:31:09Z</time></trkpt><trkpt lat="59.3540153001" lon="34.6959124412"><ele>160.12</ele><time>2026-08-15T07:31:23Z</time></trkpt><trkpt lat="59.3542982731" lon="34.6920540836"><ele>175.09</ele><time>2026-08-15T07:33:34Z</time></trkpt><trkpt lat="59.3544070702" lon="34.6918483917"><ele>175.88</ele><time>2026-08-15T07:33:42Z</time></trkpt><trkpt lat="59.3571220525" lon="34.6897307038"><ele>192.62</ele><time>2026-08-15T07:36:32Z</time></trkpt><trkpt lat="59.3574438337" lon="34.6895470563"><ele>183.83</ele><time>2026-08-15T07:36:47Z</time></trkpt><trkpt lat="59.3574729189" lon="34.6895254310"><ele>182.48</ele><time>2026-08-15T07:36:49Z</time></trkpt><trkpt lat="59.3575524632" lon="34.6894141193"><ele>178.60</ele><time>2026-08-15T07:36:55Z</time></trkpt><trkpt lat="59.3577380385" lon="34.6891588904"><ele>169.05</ele><time>2026-08-15T07:37:09Z</time></trkpt><trkpt lat="59.3579450715" lon="34.6888742410"><ele>162.44</ele><time>2026-08-15T07:37:24Z</time></trkpt><trkpt lat="59.3580162339" lon="34.6886636876"><ele>158.28</ele><time>2026-08-15T07:37:34Z</time></trkpt><trkpt lat="59.3580465764" lon="34.6885639429"><ele>156.64</ele><time>2026-08-15T07:37:38Z</time></trkpt><trkpt lat="59.3581563793" lon="34.6882849094"><ele>152.73</ele><time>2026-08-15T07:37:47Z</time></trkpt><trkpt lat="59.3582282122" lon="34.6881300956"><ele>150.78</ele><time>2026-08-15T07:37:52Z</time></trkpt><trkpt lat="59.3582464010" lon="34.6880587656"><ele>150.04</ele><time>2026-08-15T07:37:54Z</time></trkpt><trkpt lat="59.3583147973" lon="34.6879234817"><ele>148.17</ele><time>2026-08-15T07:37:59Z</time></trkpt><trkpt lat="59.3584491592" lon="34.6876581106"><ele>144.39</ele><time>2026-08-15T07:38:09Z</time></trkpt><trkpt lat="59.3585209083" lon="34.6874369122"><ele>141.27</ele><time>2026-08-15T07:38:18Z</time></trkpt><trkpt lat="59.3586195633" lon="34.6871912386"><ele>138.97</ele><time>2026-08-15T07:38:27Z</time></trkpt><trkpt lat="59.3586474750" lon="34.6871665958"><ele>138.55</ele><time>2026-08-15T07:38:29Z</time></trkpt><trkpt lat="59.3588690087" lon="34.6870495845"><ele>135.64</ele><time>2026-08-15T07:38:41Z</time></trkpt><trkpt lat="59.3589343037" lon="34.6870483272"><ele>136.86</ele><time>2026-08-15T07:38:45Z</time></trkpt><trkpt lat="59.3590763770" lon="34.6870739758"><ele>140.62</ele><time>2026-08-15T07:38:53Z</time></trkpt><trkpt lat="59.3592097331" lon="34.6870991215"><ele>141.55</ele><time>2026-08-15T07:39:00Z</time></trkpt><trkpt lat="59.3594571669" lon="34.6871448029"><ele>142.49</ele><time>2026-08-15T07:39:13Z</time></trkpt><trkpt lat="59.3595725019" lon="34.6871921606"><ele>142.08</ele><time>2026-08-15T07:39:20Z</time></trkpt><trkpt lat="59.3597296625" lon="34.6871986147"><ele>141.85</ele><time>2026-08-15T07:39:29Z</time></trkpt><trkpt lat="59.3597673811" lon="34.6872109361"><ele>142.31</ele><time>2026-08-15T07:39:31Z</time></trkpt><trkpt lat="59.3599112146" lon="34.6871147957"><ele>140.65</ele><time>2026-08-15T07:39:42Z</time></trkpt><trkpt lat="59.3601284735" lon="34.6870149672"><ele>142.57</ele><time>2026-08-15T07:39:54Z</time></trkpt><trkpt lat="59.3602715526" lon="34.6869833674"><ele>142.19</ele><time>2026-08-15T07:40:04Z</time></trkpt><trkpt lat="59.3604189064" lon="34.6868995484"><ele>140.25</ele><time>2026-08-15T07:40:14Z</time></trkpt><trkpt lat="59.3605002947" lon="34.6868445631"><ele>140.29</ele><time>2026-08-15T07:40:19Z</time></trkpt><trkpt lat="59.3605766539" lon="34.6866556350"><ele>141.99</ele><time>2026-08-15T07:40:27Z</time></trkpt><trkpt lat="59.3606519233" lon="34.6864520386"><ele>141.27</ele><time>2026-08-15T07:40:36Z</time></trkpt><trkpt lat="59.3606634904" lon="34.6864030045"><ele>140.91</ele><time>2026-08-15T07:40:38Z</time></trkpt><trkpt lat="59.3606784102" lon="34.6862595063"><ele>139.91</ele><time>2026-08-15T07:40:43Z</time></trkpt><trkpt lat="59.3607823458" lon="34.6857666504"><ele>135.90</ele><time>2026-08-15T07:40:57Z</time></trkpt><trkpt lat="59.3608153705" lon="34.6856747847"><ele>134.00</ele><time>2026-08-15T07:41:01Z</time></trkpt><trkpt lat="59.3609126844" lon="34.6854400076"><ele>129.35</ele><time>2026-08-15T07:41:10Z</time></trkpt><trkpt lat="59.3610156979" lon="34.6851996146"><ele>126.75</ele><time>2026-08-15T07:41:19Z</time></trkpt><trkpt lat="59.3611732777" lon="34.6848743968"><ele>121.56</ele><time>2026-08-15T07:41:33Z</time></trkpt><trkpt lat="59.3612281792" lon="34.6846354287"><ele>117.48</ele><time>2026-08-15T07:41:42Z</time></trkpt><trkpt lat="59.3613601103" lon="34.6843197662"><ele>113.99</ele><time>2026-08-15T07:41:54Z</time></trkpt><trkpt lat="59.3614802230" lon="34.6838990785"><ele>109.60</ele><time>2026-08-15T07:42:07Z</time></trkpt><trkpt lat="59.3615041114" lon="34.6837147605"><ele>110.68</ele><time>2026-08-15T07:42:16Z</time></trkpt><trkpt lat="59.3615733460" lon="34.6833796520"><ele>116.61</ele><time>2026-08-15T07:42:30Z</time></trkpt><trkpt lat="59.3616101425" lon="34.6832650714"><ele>121.87</ele><time>2026-08-15T07:42:36Z</time></trkpt><trkpt lat="59.3616207875" lon="34.6831690148"><ele>123.87</ele><time>2026-08-15T07:42:40Z</time></trkpt><trkpt lat="59.3617123179" lon="34.6827547811"><ele>125.98</ele><time>2026-08-15T07:42:55Z</time></trkpt><trkpt lat="59.3617442530" lon="34.6826479957"><ele>125.43</ele><time>2026-08-15T07:42:59Z</time></trkpt><trkpt lat="59.3617844861" lon="34.6825521905"><ele>124.45</ele><time>2026-08-15T07:43:04Z</time></trkpt><trkpt lat="59.3618051056" lon="34.6824899130"><ele>124.45</ele><time>2026-08-15T07:43:07Z</time></trkpt><trkpt lat="59.3619243801" lon="34.6822025813"><ele>123.25</ele><time>2026-08-15T07:43:18Z</time></trkpt><trkpt lat="59.3619823828" lon="34.6820955444"><ele>123.05</ele><time>2026-08-15T07:43:23Z</time></trkpt><trkpt lat="59.3620911799" lon="34.6816264931"><ele>124.89</ele><time>2026-08-15T07:43:37Z</time></trkpt><trkpt lat="59.3621144816" lon="34.6813464537"><ele>129.09</ele><time>2026-08-15T07:43:46Z</time></trkpt><trkpt lat="59.3621573132" lon="34.6812224016"><ele>128.72</ele><time>2026-08-15T07:43:51Z</time></trkpt><trkpt lat="59.3621958699" lon="34.6810850222"><ele>128.53</ele><time>2026-08-15T07:43:56Z</time></trkpt><trkpt lat="59.3622948602" lon="34.6808881313"><ele>129.58</ele><time>2026-08-15T07:44:04Z</time></trkpt><trkpt lat="59.3623165693" lon="34.6807660069"><ele>129.33</ele><time>2026-08-15T07:44:08Z</time></trkpt><trkpt lat="59.3623771705" lon="34.6805324871"><ele>130.53</ele><time>2026-08-15T07:44:18Z</time></trkpt><trkpt lat="59.3624198344" lon="34.6802811977"><ele>131.70</ele><time>2026-08-15T07:44:27Z</time></trkpt><trkpt lat="59.3625388574" lon="34.6798564866"><ele>134.48</ele><time>2026-08-15T07:44:39Z</time></trkpt><trkpt lat="59.3625774980" lon="34.6795431711"><ele>134.51</ele><time>2026-08-15T07:44:50Z</time></trkpt><trkpt lat="59.3626181502" lon="34.6792757045"><ele>133.26</ele><time>2026-08-15T07:45:07Z</time></trkpt><trkpt lat="59.3626479898" lon="34.6789866127"><ele>136.38</ele><time>2026-08-15T07:45:24Z</time></trkpt><trkpt lat="59.3626480736" lon="34.6787079982"><ele>136.08</ele><time>2026-08-15T07:45:33Z</time></trkpt><trkpt lat="59.3626272865" lon="34.6785287093"><ele>138.00</ele><time>2026-08-15T07:45:37Z</time></trkpt><trkpt lat="59.3626292143" lon="34.6783458162"><ele>140.64</ele><time>2026-08-15T07:45:42Z</time></trkpt><trkpt lat="59.3626355007" lon="34.6782420482"><ele>142.85</ele><time>2026-08-15T07:45:46Z</time></trkpt><trkpt lat="59.3626070861" lon="34.6779963747"><ele>145.51</ele><time>2026-08-15T07:45:56Z</time></trkpt><trkpt lat="59.3626000453" lon="34.6778723225"><ele>147.12</ele><time>2026-08-15T07:46:00Z</time></trkpt><trkpt lat="59.3625908252" lon="34.6777544729"><ele>147.98</ele><time>2026-08-15T07:46:04Z</time></trkpt><trkpt lat="59.3625651766" lon="34.6774296742"><ele>147.02</ele><time>2026-08-15T07:46:16Z</time></trkpt><trkpt lat="59.3625445571" lon="34.6773502976"><ele>146.19</ele><time>2026-08-15T07:46:19Z</time></trkpt><trkpt lat="59.3625251111" lon="34.6770938952"><ele>144.21</ele><time>2026-08-15T07:46:28Z</time></trkpt><trkpt lat="59.3624920864" lon="34.6770018619"><ele>143.56</ele><time>2026-08-15T07:46:31Z</time></trkpt><trkpt lat="59.3624155596" lon="34.6768114250"><ele>141.43</ele><time>2026-08-15T07:46:37Z</time></trkpt><trkpt lat="59.3624150567" lon="34.6767509915"><ele>140.80</ele><time>2026-08-15T07:46:39Z</time></trkpt><trkpt lat="59.3623893242" lon="34.6763510909"><ele>137.77</ele><time>2026-08-15T07:46:53Z</time></trkpt><trkpt lat="59.3623953592" lon="34.6761379391"><ele>137.06</ele><time>2026-08-15T07:47:00Z</time></trkpt><trkpt lat="59.3623155635" lon="34.6755746752"><ele>135.68</ele><time>2026-08-15T07:47:16Z</time></trkpt><trkpt lat="59.3622887414" lon="34.6753445920"><ele>135.74</ele><time>2026-08-15T07:47:23Z</time></trkpt><trkpt lat="59.3622666970" lon="34.6751314402"><ele>136.94</ele><time>2026-08-15T07:47:36Z</time></trkpt><trkpt lat="59.3622294813" lon="34.6748154424"><ele>138.46</ele><time>2026-08-15T07:47:47Z</time></trkpt><trkpt lat="59.3621863984" lon="34.6745966747"><ele>139.82</ele><time>2026-08-15T07:47:54Z</time></trkpt><trkpt lat="59.3621259648" lon="34.6743614785"><ele>140.45</ele><time>2026-08-15T07:48:01Z</time></trkpt><trkpt lat="59.3620433193" lon="34.6740262024"><ele>141.94</ele><time>2026-08-15T07:48:10Z</time></trkpt><trkpt lat="59.3620053492" lon="34.6735910978"><ele>145.88</ele><time>2026-08-15T07:48:22Z</time></trkpt><trkpt lat="59.3620191794" lon="34.6733325999"><ele>148.62</ele><time>2026-08-15T07:48:29Z</time></trkpt><trkpt lat="59.3620675430" lon="34.6731994115"><ele>149.69</ele><time>2026-08-15T07:48:34Z</time></trkpt><trkpt lat="59.3622077722" lon="34.6727897041"><ele>150.24</ele><time>2026-08-15T07:48:49Z</time></trkpt><trkpt lat="59.3623450678" lon="34.6724852733"><ele>146.89</ele><time>2026-08-15T07:49:01Z</time></trkpt><trkpt lat="59.3623548746" lon="34.6724596247"><ele>146.45</ele><time>2026-08-15T07:49:02Z</time></trkpt><trkpt lat="59.3623780925" lon="34.6723466367"><ele>145.18</ele><time>2026-08-15T07:49:06Z</time></trkpt><trkpt lat="59.3623884860" lon="34.6722064912"><ele>143.40</ele><time>2026-08-15T07:49:11Z</time></trkpt><trkpt lat="59.3624061719" lon="34.6721480694"><ele>142.87</ele><time>2026-08-15T07:49:13Z</time></trkpt><trkpt lat="59.3624355923" lon="34.6720170602"><ele>142.12</ele><time>2026-08-15T07:49:17Z</time></trkpt><trkpt lat="59.3625428807" lon="34.6716237813"><ele>140.85</ele><time>2026-08-15T07:49:28Z</time></trkpt><trkpt lat="59.3627295457" lon="34.6713144891"><ele>141.14</ele><time>2026-08-15T07:49:41Z</time></trkpt><trkpt lat="59.3628526758" lon="34.6710142493"><ele>140.49</ele><time>2026-08-15T07:49:52Z</time></trkpt><trkpt lat="59.3629543483" lon="34.6708118264"><ele>139.65</ele><time>2026-08-15T07:50:00Z</time></trkpt><trkpt lat="59.3630144466" lon="34.6707206313"><ele>139.07</ele><time>2026-08-15T07:50:06Z</time></trkpt><trkpt lat="59.3631393369" lon="34.6706436016"><ele>142.03</ele><time>2026-08-15T07:50:22Z</time></trkpt><trkpt lat="59.3630985171" lon="34.6705776360"><ele>143.99</ele><time>2026-08-15T07:50:55Z</time></trkpt><trkpt lat="59.3631115928" lon="34.6706089005"><ele>146.28</ele><time>2026-08-15T07:51:21Z</time></trkpt><trkpt lat="59.3631340563" lon="34.6706727706"><ele>150.96</ele><time>2026-08-15T07:51:50Z</time></trkpt><trkpt lat="59.3631329667" lon="34.6706632152"><ele>154.21</ele><time>2026-08-15T07:52:14Z</time></trkpt><trkpt lat="59.3631665781" lon="34.6706303582"><ele>157.39</ele><time>2026-08-15T07:52:43Z</time></trkpt><trkpt lat="59.3631948251" lon="34.6706119180"><ele>155.47</ele><time>2026-08-15T07:53:11Z</time></trkpt><trkpt lat="59.3632094935" lon="34.6704797354"><ele>157.11</ele><time>2026-08-15T07:54:06Z</time></trkpt><trkpt lat="59.3632716034" lon="34.6704648156"><ele>157.84</ele><time>2026-08-15T07:54:36Z</time></trkpt><trkpt lat="59.3631426897" lon="34.6705308650"><ele>157.25</ele><time>2026-08-15T07:55:09Z</time></trkpt><trkpt lat="59.3631241657" lon="34.6704475489"><ele>158.31</ele><time>2026-08-15T07:55:31Z</time></trkpt><trkpt lat="59.3630395085" lon="34.6702628117"><ele>160.59</ele><time>2026-08-15T07:55:49Z</time></trkpt><trkpt lat="59.3629571144" lon="34.6701285336"><ele>161.96</ele><time>2026-08-15T07:56:03Z</time></trkpt><trkpt lat="59.3628413603" lon="34.6700142883"><ele>162.88</ele><time>2026-08-15T07:56:21Z</time></trkpt><trkpt lat="59.3627572060" lon="34.6698256955"><ele>162.38</ele><time>2026-08-15T07:56:36Z</time></trkpt><trkpt lat="59.3626741413" lon="34.6696549561"><ele>161.70</ele><time>2026-08-15T07:56:53Z</time></trkpt><trkpt lat="59.3625980336" lon="34.6696429700"><ele>162.62</ele><time>2026-08-15T07:57:09Z</time></trkpt><trkpt lat="59.3625059165" lon="34.6695367713"><ele>162.76</ele><time>2026-08-15T07:57:22Z</time></trkpt><trkpt lat="59.3625072576" lon="34.6694255434"><ele>163.11</ele><time>2026-08-15T07:57:41Z</time></trkpt><trkpt lat="59.3624769989" lon="34.6692460869"><ele>163.34</ele><time>2026-08-15T07:57:54Z</time></trkpt><trkpt lat="59.3624399509" lon="34.6690745093"><ele>162.69</ele><time>2026-08-15T07:58:10Z</time></trkpt><trkpt lat="59.3624226842" lon="34.6690633614"><ele>161.72</ele><time>2026-08-15T07:58:26Z</time></trkpt><trkpt lat="59.3624030706" lon="34.6690269001"><ele>161.43</ele><time>2026-08-15T07:58:45Z</time></trkpt><trkpt lat="59.3623339199" lon="34.6688868385"><ele>160.84</ele><time>2026-08-15T07:59:01Z</time></trkpt><trkpt lat="59.3623422179" lon="34.6688430011"><ele>160.63</ele><time>2026-08-15T07:59:20Z</time></trkpt><trkpt lat="59.3623477500" lon="34.6687470283"><ele>159.84</ele><time>2026-08-15T07:59:47Z</time></trkpt><trkpt lat="59.3623449001" lon="34.6687214635"><ele>159.79</ele><time>2026-08-15T08:00:01Z</time></trkpt><trkpt lat="59.3623240292" lon="34.6688601002"><ele>158.94</ele><time>2026-08-15T08:00:13Z</time></trkpt><trkpt lat="59.3622297328" lon="34.6688764449"><ele>159.76</ele><time>2026-08-15T08:00:25Z</time></trkpt><trkpt lat="59.3622117955" lon="34.6688181069"><ele>159.55</ele><time>2026-08-15T08:00:29Z</time></trkpt><trkpt lat="59.3621858954" lon="34.6687160991"><ele>158.97</ele><time>2026-08-15T08:00:35Z</time></trkpt><trkpt lat="59.3621905055" lon="34.6686249878"><ele>158.05</ele><time>2026-08-15T08:00:49Z</time></trkpt><trkpt lat="59.3621838838" lon="34.6686172765"><ele>157.63</ele><time>2026-08-15T08:01:09Z</time></trkpt><trkpt lat="59.3621797767" lon="34.6686170250"><ele>157.15</ele><time>2026-08-15T08:01:35Z</time></trkpt><trkpt lat="59.3622030783" lon="34.6686174441"><ele>156.49</ele><time>2026-08-15T08:02:00Z</time></trkpt><trkpt lat="59.3621576484" lon="34.6685133409"><ele>156.14</ele><time>2026-08-15T08:02:21Z</time></trkpt><trkpt lat="59.3620717339" lon="34.6683271788"><ele>156.19</ele><time>2026-08-15T08:02:29Z</time></trkpt><trkpt lat="59.3619703967" lon="34.6681663301"><ele>156.40</ele><time>2026-08-15T08:02:43Z</time></trkpt><trkpt lat="59.3619192671" lon="34.6681084950"><ele>156.79</ele><time>2026-08-15T08:02:55Z</time></trkpt><trkpt lat="59.3618908525" lon="34.6680713631"><ele>158.43</ele><time>2026-08-15T08:03:17Z</time></trkpt><trkpt lat="59.3619590811" lon="34.6678750589"><ele>158.88</ele><time>2026-08-15T08:03:32Z</time></trkpt><trkpt lat="59.3619461730" lon="34.6678711195"><ele>160.11</ele><time>2026-08-15T08:03:56Z</time></trkpt><trkpt lat="59.3619335163" lon="34.6678025555"><ele>161.46</ele><time>2026-08-15T08:04:40Z</time></trkpt><trkpt lat="59.3618827220" lon="34.6677550301"><ele>161.66</ele><time>2026-08-15T08:04:59Z</time></trkpt><trkpt lat="59.3618358672" lon="34.6677351650"><ele>161.89</ele><time>2026-08-15T08:05:16Z</time></trkpt><trkpt lat="59.3617211189" lon="34.6675682813"><ele>163.62</ele><time>2026-08-15T08:05:34Z</time></trkpt><trkpt lat="59.3617010023" lon="34.6675117034"><ele>163.78</ele><time>2026-08-15T08:05:37Z</time></trkpt><trkpt lat="59.3616468553" lon="34.6673562191"><ele>163.00</ele><time>2026-08-15T08:05:49Z</time></trkpt><trkpt lat="59.3616335280" lon="34.6673015691"><ele>162.01</ele><time>2026-08-15T08:05:53Z</time></trkpt><trkpt lat="59.3616000842" lon="34.6671478450"><ele>161.27</ele><time>2026-08-15T08:06:02Z</time></trkpt><trkpt lat="59.3615994137" lon="34.6669885051"><ele>160.91</ele><time>2026-08-15T08:06:17Z</time></trkpt><trkpt lat="59.3615861703" lon="34.6669916902"><ele>160.50</ele><time>2026-08-15T08:06:40Z</time></trkpt><trkpt lat="59.3615703285" lon="34.6669060271"><ele>162.00</ele><time>2026-08-15T08:07:08Z</time></trkpt><trkpt lat="59.3615520559" lon="34.6669106372"><ele>161.67</ele><time>2026-08-15T08:07:29Z</time></trkpt><trkpt lat="59.3615302630" lon="34.6668504551"><ele>163.44</ele><time>2026-08-15T08:07:57Z</time></trkpt><trkpt lat="59.3615352921" lon="34.6667761914"><ele>162.70</ele><time>2026-08-15T08:08:10Z</time></trkpt><trkpt lat="59.3615606893" lon="34.6666655503"><ele>162.75</ele><time>2026-08-15T08:08:22Z</time></trkpt><trkpt lat="59.3615806382" lon="34.6666176897"><ele>160.93</ele><time>2026-08-15T08:09:00Z</time></trkpt><trkpt lat="59.3615962286" lon="34.6664998401"><ele>160.58</ele><time>2026-08-15T08:09:13Z</time></trkpt><trkpt lat="59.3615949713" lon="34.6663487982"><ele>160.22</ele><time>2026-08-15T08:09:23Z</time></trkpt><trkpt lat="59.3616424128" lon="34.6661219839"><ele>157.41</ele><time>2026-08-15T08:09:38Z</time></trkpt><trkpt lat="59.3616947159" lon="34.6660063975"><ele>155.10</ele><time>2026-08-15T08:09:55Z</time></trkpt><trkpt lat="59.3617257290" lon="34.6659978479"><ele>156.08</ele><time>2026-08-15T08:10:19Z</time></trkpt><trkpt lat="59.3617623579" lon="34.6660105046"><ele>156.35</ele><time>2026-08-15T08:10:49Z</time></trkpt><trkpt lat="59.3617590051" lon="34.6660385840"><ele>157.96</ele><time>2026-08-15T08:11:19Z</time></trkpt><trkpt lat="59.3617688119" lon="34.6659838501"><ele>160.87</ele><time>2026-08-15T08:11:49Z</time></trkpt><trkpt lat="59.3618079554" lon="34.6657696925"><ele>161.34</ele><time>2026-08-15T08:12:05Z</time></trkpt><trkpt lat="59.3618650362" lon="34.6655647550"><ele>159.77</ele><time>2026-08-15T08:12:22Z</time></trkpt><trkpt lat="59.3619038444" lon="34.6653893217"><ele>158.09</ele><time>2026-08-15T08:12:35Z</time></trkpt><trkpt lat="59.3619035091" lon="34.6652272157"><ele>156.22</ele><time>2026-08-15T08:12:50Z</time></trkpt><trkpt lat="59.3619611766" lon="34.6651956998"><ele>154.70</ele><time>2026-08-15T08:13:03Z</time></trkpt><trkpt lat="59.3620107137" lon="34.6651747450"><ele>159.09</ele><time>2026-08-15T08:13:28Z</time></trkpt><trkpt lat="59.3620247953" lon="34.6651811991"><ele>159.64</ele><time>2026-08-15T08:13:53Z</time></trkpt><trkpt lat="59.3620118033" lon="34.6652488410"><ele>159.04</ele><time>2026-08-15T08:14:29Z</time></trkpt><trkpt lat="59.3620641064" lon="34.6651323326"><ele>160.11</ele><time>2026-08-15T08:14:47Z</time></trkpt><trkpt lat="59.3620995618" lon="34.6649729088"><ele>159.72</ele><time>2026-08-15T08:15:01Z</time></trkpt><trkpt lat="59.3621315807" lon="34.6647216193"><ele>158.27</ele><time>2026-08-15T08:15:17Z</time></trkpt><trkpt lat="59.3621929362" lon="34.6645061206"><ele>153.91</ele><time>2026-08-15T08:15:32Z</time></trkpt><trkpt lat="59.3622317445" lon="34.6642429288"><ele>152.46</ele><time>2026-08-15T08:15:51Z</time></trkpt><trkpt lat="59.3622313254" lon="34.6642306075"><ele>153.48</ele><time>2026-08-15T08:16:12Z</time></trkpt><trkpt lat="59.3622628413" lon="34.6641394123"><ele>157.24</ele><time>2026-08-15T08:16:37Z</time></trkpt><trkpt lat="59.3622662779" lon="34.6641616244"><ele>158.78</ele><time>2026-08-15T08:17:06Z</time></trkpt><trkpt lat="59.3622558005" lon="34.6641213074"><ele>159.61</ele><time>2026-08-15T08:17:33Z</time></trkpt><trkpt lat="59.3622174114" lon="34.6640374884"><ele>161.42</ele><time>2026-08-15T08:17:49Z</time></trkpt><trkpt lat="59.3621642701" lon="34.6637890488"><ele>161.87</ele><time>2026-08-15T08:18:09Z</time></trkpt><trkpt lat="59.3621387891" lon="34.6635370888"><ele>162.33</ele><time>2026-08-15T08:18:29Z</time></trkpt><trkpt lat="59.3620825466" lon="34.6633330733"><ele>161.20</ele><time>2026-08-15T08:18:42Z</time></trkpt><trkpt lat="59.3620247953" lon="34.6631471626"><ele>159.74</ele><time>2026-08-15T08:18:53Z</time></trkpt><trkpt lat="59.3620454986" lon="34.6630486753"><ele>159.25</ele><time>2026-08-15T08:18:58Z</time></trkpt><trkpt lat="59.3620322552" lon="34.6629257128"><ele>159.36</ele><time>2026-08-15T08:19:13Z</time></trkpt><trkpt lat="59.3620162457" lon="34.6629260480"><ele>161.75</ele><time>2026-08-15T08:19:39Z</time></trkpt><trkpt lat="59.3620145693" lon="34.6629165765"><ele>163.16</ele><time>2026-08-15T08:20:04Z</time></trkpt><trkpt lat="59.3620107975" lon="34.6629152354"><ele>163.51</ele><time>2026-08-15T08:20:20Z</time></trkpt><trkpt lat="59.3620081991" lon="34.6628462523"><ele>163.58</ele><time>2026-08-15T08:20:40Z</time></trkpt><trkpt lat="59.3619879987" lon="34.6626170911"><ele>163.22</ele><time>2026-08-15T08:20:55Z</time></trkpt><trkpt lat="59.3619355280" lon="34.6624136623"><ele>163.41</ele><time>2026-08-15T08:21:06Z</time></trkpt><trkpt lat="59.3619266432" lon="34.6622782946"><ele>163.01</ele><time>2026-08-15T08:21:21Z</time></trkpt><trkpt lat="59.3619281519" lon="34.6620267536"><ele>162.82</ele><time>2026-08-15T08:21:37Z</time></trkpt><trkpt lat="59.3619240448" lon="34.6620050445"><ele>163.07</ele><time>2026-08-15T08:21:50Z</time></trkpt><trkpt lat="59.3619138189" lon="34.6620147675"><ele>163.02</ele><time>2026-08-15T08:22:15Z</time></trkpt><trkpt lat="59.3619175907" lon="34.6619861852"><ele>162.88</ele><time>2026-08-15T08:22:37Z</time></trkpt><trkpt lat="59.3619064428" lon="34.6619518194"><ele>163.07</ele><time>2026-08-15T08:23:09Z</time></trkpt><trkpt lat="59.3618995696" lon="34.6618068125"><ele>162.75</ele><time>2026-08-15T08:23:30Z</time></trkpt><trkpt lat="59.3619158305" lon="34.6616442874"><ele>161.99</ele><time>2026-08-15T08:23:46Z</time></trkpt><trkpt lat="59.3619014975" lon="34.6615623962"><ele>161.21</ele><time>2026-08-15T08:23:58Z</time></trkpt><trkpt lat="59.3618963845" lon="34.6614793316"><ele>160.59</ele><time>2026-08-15T08:24:19Z</time></trkpt><trkpt lat="59.3618761841" lon="34.6613134537"><ele>160.69</ele><time>2026-08-15T08:24:34Z</time></trkpt><trkpt lat="59.3618645333" lon="34.6611864679"><ele>160.40</ele><time>2026-08-15T08:24:46Z</time></trkpt><trkpt lat="59.3618353643" lon="34.6610626671"><ele>160.78</ele><time>2026-08-15T08:24:59Z</time></trkpt><trkpt lat="59.3618266471" lon="34.6610252839"><ele>161.15</ele><time>2026-08-15T08:25:27Z</time></trkpt><trkpt lat="59.3618201092" lon="34.6610068437"><ele>161.50</ele><time>2026-08-15T08:25:49Z</time></trkpt><trkpt lat="59.3618162535" lon="34.6610003058"><ele>162.03</ele><time>2026-08-15T08:26:11Z</time></trkpt><trkpt lat="59.3618163373" lon="34.6609966177"><ele>161.82</ele><time>2026-08-15T08:26:39Z</time></trkpt><trkpt lat="59.3618268147" lon="34.6609765850"><ele>161.20</ele><time>2026-08-15T08:26:58Z</time></trkpt><trkpt lat="59.3618258927" lon="34.6609088592"><ele>161.11</ele><time>2026-08-15T08:27:11Z</time></trkpt><trkpt lat="59.3618144095" lon="34.6607640199"><ele>162.08</ele><time>2026-08-15T08:27:25Z</time></trkpt><trkpt lat="59.3617639504" lon="34.6606571507"><ele>160.90</ele><time>2026-08-15T08:27:39Z</time></trkpt><trkpt lat="59.3617555685" lon="34.6605111379"><ele>159.40</ele><time>2026-08-15T08:27:56Z</time></trkpt><trkpt lat="59.3617501203" lon="34.6603924502"><ele>159.34</ele><time>2026-08-15T08:28:08Z</time></trkpt><trkpt lat="59.3617274053" lon="34.6602808870"><ele>159.16</ele><time>2026-08-15T08:28:19Z</time></trkpt><trkpt lat="59.3617007509" lon="34.6601323597"><ele>159.04</ele><time>2026-08-15T08:28:31Z</time></trkpt><trkpt lat="59.3616994936" lon="34.6601067949"><ele>160.02</ele><time>2026-08-15T08:28:45Z</time></trkpt><trkpt lat="59.3616979849" lon="34.6601098124"><ele>160.15</ele><time>2026-08-15T08:29:05Z</time></trkpt><trkpt lat="59.3617046904" lon="34.6601244807"><ele>161.41</ele><time>2026-08-15T08:29:58Z</time></trkpt><trkpt lat="59.3616964761" lon="34.6601337846"><ele>161.82</ele><time>2026-08-15T08:30:25Z</time></trkpt><trkpt lat="59.3617040198" lon="34.6600385662"><ele>161.62</ele><time>2026-08-15T08:30:41Z</time></trkpt><trkpt lat="59.3617126532" lon="34.6599575132"><ele>160.63</ele><time>2026-08-15T08:30:52Z</time></trkpt><trkpt lat="59.3617421575" lon="34.6598172840"><ele>159.75</ele><time>2026-08-15T08:31:05Z</time></trkpt><trkpt lat="59.3617610168" lon="34.6597258374"><ele>159.06</ele><time>2026-08-15T08:31:19Z</time></trkpt><trkpt lat="59.3617433310" lon="34.6596247517"><ele>159.29</ele><time>2026-08-15T08:31:30Z</time></trkpt><trkpt lat="59.3617445044" lon="34.6595570259"><ele>159.35</ele><time>2026-08-15T08:31:46Z</time></trkpt><trkpt lat="59.3617664650" lon="34.6594124380"><ele>158.77</ele><time>2026-08-15T08:31:59Z</time></trkpt><trkpt lat="59.3617749307" lon="34.6592003759"><ele>157.45</ele><time>2026-08-15T08:32:12Z</time></trkpt><trkpt lat="59.3617053609" lon="34.6591173951"><ele>157.86</ele><time>2026-08-15T08:32:24Z</time></trkpt><trkpt lat="59.3616611883" lon="34.6590631641"><ele>157.23</ele><time>2026-08-15T08:32:36Z</time></trkpt><trkpt lat="59.3616414070" lon="34.6590514295"><ele>157.33</ele><time>2026-08-15T08:32:40Z</time></trkpt><trkpt lat="59.3615676463" lon="34.6590023115"><ele>157.83</ele><time>2026-08-15T08:32:52Z</time></trkpt><trkpt lat="59.3615531456" lon="34.6589575522"><ele>158.45</ele><time>2026-08-15T08:33:11Z</time></trkpt><trkpt lat="59.3615539838" lon="34.6589438058"><ele>158.83</ele><time>2026-08-15T08:33:36Z</time></trkpt><trkpt lat="59.3615500443" lon="34.6589278802"><ele>159.14</ele><time>2026-08-15T08:34:04Z</time></trkpt><trkpt lat="59.3615507986" lon="34.6589104459"><ele>160.33</ele><time>2026-08-15T08:34:27Z</time></trkpt><trkpt lat="59.3615635391" lon="34.6588631719"><ele>160.52</ele><time>2026-08-15T08:34:47Z</time></trkpt><trkpt lat="59.3615638744" lon="34.6587518603"><ele>160.31</ele><time>2026-08-15T08:34:59Z</time></trkpt><trkpt lat="59.3615528941" lon="34.6585975494"><ele>159.00</ele><time>2026-08-15T08:35:14Z</time></trkpt><trkpt lat="59.3615283351" lon="34.6584931947"><ele>158.96</ele><time>2026-08-15T08:35:20Z</time></trkpt><trkpt lat="59.3614979088" lon="34.6583468467"><ele>159.34</ele><time>2026-08-15T08:35:28Z</time></trkpt><trkpt lat="59.3614632078" lon="34.6582678054"><ele>159.72</ele><time>2026-08-15T08:35:33Z</time></trkpt><trkpt lat="59.3614220526" lon="34.6581374668"><ele>160.41</ele><time>2026-08-15T08:35:49Z</time></trkpt><trkpt lat="59.3614212144" lon="34.6581385564"><ele>160.71</ele><time>2026-08-15T08:36:05Z</time></trkpt><trkpt lat="59.3614228070" lon="34.6581480280"><ele>160.39</ele><time>2026-08-15T08:36:26Z</time></trkpt><trkpt lat="59.3614219688" lon="34.6580346208"><ele>160.94</ele><time>2026-08-15T08:36:56Z</time></trkpt><trkpt lat="59.3613720126" lon="34.6578352153"><ele>160.94</ele><time>2026-08-15T08:37:11Z</time></trkpt><trkpt lat="59.3613026943" lon="34.6575521585"><ele>160.76</ele><time>2026-08-15T08:37:25Z</time></trkpt><trkpt lat="59.3612624612" lon="34.6573971771"><ele>160.87</ele><time>2026-08-15T08:37:39Z</time></trkpt><trkpt lat="59.3612736091" lon="34.6573621407"><ele>160.83</ele><time>2026-08-15T08:37:42Z</time></trkpt><trkpt lat="59.3613026943" lon="34.6572404355"><ele>159.48</ele><time>2026-08-15T08:37:56Z</time></trkpt><trkpt lat="59.3612815719" lon="34.6571631543"><ele>159.57</ele><time>2026-08-15T08:38:07Z</time></trkpt><trkpt lat="59.3612723518" lon="34.6571491566"><ele>159.69</ele><time>2026-08-15T08:38:24Z</time></trkpt><trkpt lat="59.3612708431" lon="34.6571346559"><ele>159.62</ele><time>2026-08-15T08:38:51Z</time></trkpt><trkpt lat="59.3612738606" lon="34.6571356617"><ele>159.02</ele><time>2026-08-15T08:39:16Z</time></trkpt><trkpt lat="59.3612514809" lon="34.6570156328"><ele>156.57</ele><time>2026-08-15T08:39:32Z</time></trkpt><trkpt lat="59.3612308614" lon="34.6568246093"><ele>155.61</ele><time>2026-08-15T08:39:52Z</time></trkpt><trkpt lat="59.3612529896" lon="34.6565971244"><ele>154.46</ele><time>2026-08-15T08:40:08Z</time></trkpt><trkpt lat="59.3611922208" lon="34.6564889140"><ele>154.05</ele><time>2026-08-15T08:40:22Z</time></trkpt><trkpt lat="59.3611099944" lon="34.6563478466"><ele>154.77</ele><time>2026-08-15T08:40:40Z</time></trkpt><trkpt lat="59.3610785622" lon="34.6561777778"><ele>154.90</ele><time>2026-08-15T08:40:53Z</time></trkpt><trkpt lat="59.3610698450" lon="34.6561251394"><ele>155.49</ele><time>2026-08-15T08:41:06Z</time></trkpt><trkpt lat="59.3610762991" lon="34.6561062802"><ele>156.64</ele><time>2026-08-15T08:41:28Z</time></trkpt><trkpt lat="59.3610648159" lon="34.6560406499"><ele>156.58</ele><time>2026-08-15T08:41:51Z</time></trkpt><trkpt lat="59.3610709347" lon="34.6559870895"><ele>156.51</ele><time>2026-08-15T08:42:19Z</time></trkpt><trkpt lat="59.3610672466" lon="34.6559969801"><ele>157.18</ele><time>2026-08-15T08:42:40Z</time></trkpt><trkpt lat="59.3610657379" lon="34.6559488680"><ele>157.52</ele><time>2026-08-15T08:42:46Z</time></trkpt><trkpt lat="59.3610842619" lon="34.6557414997"><ele>157.57</ele><time>2026-08-15T08:42:59Z</time></trkpt><trkpt lat="59.3611139338" lon="34.6556347981"><ele>156.65</ele><time>2026-08-15T08:43:13Z</time></trkpt><trkpt lat="59.3610623013" lon="34.6554653998"><ele>156.99</ele><time>2026-08-15T08:43:31Z</time></trkpt><trkpt lat="59.3610258400" lon="34.6552653238"><ele>156.17</ele><time>2026-08-15T08:43:47Z</time></trkpt><trkpt lat="59.3610313721" lon="34.6550526749"><ele>156.02</ele><time>2026-08-15T08:44:04Z</time></trkpt><trkpt lat="59.3610307015" lon="34.6549639106"><ele>159.60</ele><time>2026-08-15T08:44:29Z</time></trkpt><trkpt lat="59.3610152788" lon="34.6549113560"><ele>161.23</ele><time>2026-08-15T08:44:55Z</time></trkpt><trkpt lat="59.3610436097" lon="34.6548878029"><ele>163.55</ele><time>2026-08-15T08:45:21Z</time></trkpt><trkpt lat="59.3609988503" lon="34.6547123697"><ele>164.45</ele><time>2026-08-15T08:45:40Z</time></trkpt><trkpt lat="59.3608996924" lon="34.6544993855"><ele>163.40</ele><time>2026-08-15T08:45:57Z</time></trkpt><trkpt lat="59.3608628120" lon="34.6544088610"><ele>162.82</ele><time>2026-08-15T08:46:08Z</time></trkpt><trkpt lat="59.3608099222" lon="34.6543597430"><ele>162.25</ele><time>2026-08-15T08:46:21Z</time></trkpt><trkpt lat="59.3608028814" lon="34.6542469226"><ele>162.01</ele><time>2026-08-15T08:46:39Z</time></trkpt><trkpt lat="59.3608053122" lon="34.6541345213"><ele>161.88</ele><time>2026-08-15T08:46:55Z</time></trkpt><trkpt lat="59.3607732095" lon="34.6540289093"><ele>160.61</ele><time>2026-08-15T08:47:12Z</time></trkpt><trkpt lat="59.3607566133" lon="34.6538557392"><ele>160.43</ele><time>2026-08-15T08:47:29Z</time></trkpt><trkpt lat="59.3608203158" lon="34.6536526456"><ele>159.48</ele><time>2026-08-15T08:47:47Z</time></trkpt><trkpt lat="59.3608052284" lon="34.6535852551"><ele>160.66</ele><time>2026-08-15T08:48:16Z</time></trkpt><trkpt lat="59.3608304579" lon="34.6536559984"><ele>161.63</ele><time>2026-08-15T08:48:43Z</time></trkpt><trkpt lat="59.3608240876" lon="34.6536085568"><ele>163.29</ele><time>2026-08-15T08:49:13Z</time></trkpt><trkpt lat="59.3608122692" lon="34.6534664836"><ele>165.78</ele><time>2026-08-15T08:49:34Z</time></trkpt><trkpt lat="59.3607778195" lon="34.6532261744"><ele>167.60</ele><time>2026-08-15T08:49:51Z</time></trkpt><trkpt lat="59.3607217446" lon="34.6529196482"><ele>166.97</ele><time>2026-08-15T08:50:08Z</time></trkpt><trkpt lat="59.3606800865" lon="34.6525954362"><ele>164.08</ele><time>2026-08-15T08:50:27Z</time></trkpt><trkpt lat="59.3606740516" lon="34.6524824481"><ele>165.03</ele><time>2026-08-15T08:50:47Z</time></trkpt><trkpt lat="59.3606835231" lon="34.6524441428"><ele>166.59</ele><time>2026-08-15T08:51:12Z</time></trkpt><trkpt lat="59.3606412783" lon="34.6523751598"><ele>168.72</ele><time>2026-08-15T08:51:41Z</time></trkpt><trkpt lat="59.3606363330" lon="34.6522454917"><ele>170.53</ele><time>2026-08-15T08:52:05Z</time></trkpt><trkpt lat="59.3605717923" lon="34.6519684698"><ele>171.27</ele><time>2026-08-15T08:52:25Z</time></trkpt><trkpt lat="59.3606131990" lon="34.6516186092"><ele>168.64</ele><time>2026-08-15T08:52:44Z</time></trkpt><trkpt lat="59.3605869636" lon="34.6514738537"><ele>167.93</ele><time>2026-08-15T08:53:03Z</time></trkpt><trkpt lat="59.3605760671" lon="34.6514445171"><ele>168.51</ele><time>2026-08-15T08:53:11Z</time></trkpt><trkpt lat="59.3605696131" lon="34.6513733547"><ele>170.34</ele><time>2026-08-15T08:53:44Z</time></trkpt><trkpt lat="59.3605223391" lon="34.6513815690"><ele>170.62</ele><time>2026-08-15T08:54:15Z</time></trkpt><trkpt lat="59.3605639972" lon="34.6513364743"><ele>170.83</ele><time>2026-08-15T08:54:43Z</time></trkpt><trkpt lat="59.3605368398" lon="34.6511299442"><ele>171.06</ele><time>2026-08-15T08:55:00Z</time></trkpt><trkpt lat="59.3605268653" lon="34.6510273498"><ele>172.14</ele><time>2026-08-15T08:55:20Z</time></trkpt><trkpt lat="59.3605024740" lon="34.6508860309"><ele>174.43</ele><time>2026-08-15T08:55:47Z</time></trkpt><trkpt lat="59.3604671862" lon="34.6507078316"><ele>174.43</ele><time>2026-08-15T08:56:08Z</time></trkpt><trkpt lat="59.3605009653" lon="34.6504715458"><ele>172.32</ele><time>2026-08-15T08:56:31Z</time></trkpt><trkpt lat="59.3604243547" lon="34.6502987109"><ele>171.72</ele><time>2026-08-15T08:56:47Z</time></trkpt><trkpt lat="59.3603724707" lon="34.6501560509"><ele>172.60</ele><time>2026-08-15T08:57:13Z</time></trkpt><trkpt lat="59.3603770807" lon="34.6502069291"><ele>174.27</ele><time>2026-08-15T08:57:48Z</time></trkpt><trkpt lat="59.3603666872" lon="34.6502173226"><ele>175.32</ele><time>2026-08-15T08:58:17Z</time></trkpt><trkpt lat="59.3603668548" lon="34.6500806976"><ele>174.84</ele><time>2026-08-15T08:58:37Z</time></trkpt><trkpt lat="59.3603313994" lon="34.6499024983"><ele>173.03</ele><time>2026-08-15T08:58:54Z</time></trkpt><trkpt lat="59.3602763303" lon="34.6497160010"><ele>171.65</ele><time>2026-08-15T08:59:17Z</time></trkpt><trkpt lat="59.3602072634" lon="34.6493913699"><ele>165.96</ele><time>2026-08-15T08:59:35Z</time></trkpt><trkpt lat="59.3601730652" lon="34.6491129231"><ele>162.40</ele><time>2026-08-15T08:59:54Z</time></trkpt><trkpt lat="59.3601640128" lon="34.6490358934"><ele>164.31</ele><time>2026-08-15T09:00:19Z</time></trkpt><trkpt lat="59.3601595704" lon="34.6490353905"><ele>166.92</ele><time>2026-08-15T09:00:51Z</time></trkpt><trkpt lat="59.3601451535" lon="34.6490047965"><ele>169.13</ele><time>2026-08-15T09:01:18Z</time></trkpt><trkpt lat="59.3601365201" lon="34.6487996913"><ele>168.14</ele><time>2026-08-15T09:01:37Z</time></trkpt><trkpt lat="59.3600937724" lon="34.6485587955"><ele>165.86</ele><time>2026-08-15T09:01:54Z</time></trkpt><trkpt lat="59.3600487616" lon="34.6483810153"><ele>163.88</ele><time>2026-08-15T09:02:11Z</time></trkpt><trkpt lat="59.3600404635" lon="34.6480682027"><ele>162.01</ele><time>2026-08-15T09:02:31Z</time></trkpt><trkpt lat="59.3600242864" lon="34.6479878202"><ele>162.43</ele><time>2026-08-15T09:02:49Z</time></trkpt><trkpt lat="59.3600233644" lon="34.6479249559"><ele>165.90</ele><time>2026-08-15T09:03:23Z</time></trkpt><trkpt lat="59.3600095343" lon="34.6478786040"><ele>166.51</ele><time>2026-08-15T09:03:53Z</time></trkpt><trkpt lat="59.3599660322" lon="34.6477391291"><ele>168.95</ele><time>2026-08-15T09:04:19Z</time></trkpt><trkpt lat="59.3599028327" lon="34.6475520451"><ele>169.14</ele><time>2026-08-15T09:04:35Z</time></trkpt><trkpt lat="59.3598811235" lon="34.6473174356"><ele>167.42</ele><time>2026-08-15T09:04:53Z</time></trkpt><trkpt lat="59.3598902598" lon="34.6470663138"><ele>164.41</ele><time>2026-08-15T09:05:10Z</time></trkpt><trkpt lat="59.3599159922" lon="34.6469290182"><ele>165.34</ele><time>2026-08-15T09:05:29Z</time></trkpt><trkpt lat="59.3599168304" lon="34.6468334645"><ele>167.87</ele><time>2026-08-15T09:05:58Z</time></trkpt><trkpt lat="59.3599035870" lon="34.6468336321"><ele>167.93</ele><time>2026-08-15T09:06:08Z</time></trkpt><trkpt lat="59.3598811235" lon="34.6468723565"><ele>168.65</ele><time>2026-08-15T09:06:39Z</time></trkpt><trkpt lat="59.3599079456" lon="34.6467843466"><ele>169.03</ele><time>2026-08-15T09:07:11Z</time></trkpt><trkpt lat="59.3599161599" lon="34.6467328817"><ele>169.20</ele><time>2026-08-15T09:07:41Z</time></trkpt><trkpt lat="59.3598926067" lon="34.6465321351"><ele>169.10</ele><time>2026-08-15T09:07:59Z</time></trkpt><trkpt lat="59.3598417286" lon="34.6463292092"><ele>166.76</ele><time>2026-08-15T09:08:17Z</time></trkpt><trkpt lat="59.3598403875" lon="34.6460618265"><ele>168.76</ele><time>2026-08-15T09:08:35Z</time></trkpt><trkpt lat="59.3597914372" lon="34.6459611598"><ele>167.12</ele><time>2026-08-15T09:08:47Z</time></trkpt><trkpt lat="59.3598125596" lon="34.6458450705"><ele>169.60</ele><time>2026-08-15T09:09:16Z</time></trkpt><trkpt lat="59.3597550597" lon="34.6458678693"><ele>174.03</ele><time>2026-08-15T09:09:42Z</time></trkpt><trkpt lat="59.3597448338" lon="34.6458326653"><ele>175.10</ele><time>2026-08-15T09:10:09Z</time></trkpt><trkpt lat="59.3597308360" lon="34.6456558071"><ele>174.92</ele><time>2026-08-15T09:10:28Z</time></trkpt><trkpt lat="59.3596595898" lon="34.6454805415"><ele>173.71</ele><time>2026-08-15T09:10:45Z</time></trkpt><trkpt lat="59.3596063647" lon="34.6452576667"><ele>171.32</ele><time>2026-08-15T09:11:02Z</time></trkpt><trkpt lat="59.3596166745" lon="34.6450412460"><ele>168.88</ele><time>2026-08-15T09:11:20Z</time></trkpt><trkpt lat="59.3596037664" lon="34.6449192893"><ele>169.09</ele><time>2026-08-15T09:11:44Z</time></trkpt><trkpt lat="59.3595901877" lon="34.6449057944"><ele>169.67</ele><time>2026-08-15T09:12:13Z</time></trkpt><trkpt lat="59.3595969770" lon="34.6449024417"><ele>170.83</ele><time>2026-08-15T09:12:42Z</time></trkpt><trkpt lat="59.3596191891" lon="34.6448484622"><ele>171.73</ele><time>2026-08-15T09:13:11Z</time></trkpt><trkpt lat="59.3595877569" lon="34.6447909623"><ele>171.75</ele><time>2026-08-15T09:13:32Z</time></trkpt><trkpt lat="59.3594931252" lon="34.6447934769"><ele>171.45</ele><time>2026-08-15T09:13:50Z</time></trkpt><trkpt lat="59.3594945502" lon="34.6448162757"><ele>171.38</ele><time>2026-08-15T09:14:09Z</time></trkpt><trkpt lat="59.3595369626" lon="34.6448810678"><ele>171.22</ele><time>2026-08-15T09:14:34Z</time></trkpt><trkpt lat="59.3594809715" lon="34.6448546648"><ele>170.41</ele><time>2026-08-15T09:15:15Z</time></trkpt><trkpt lat="59.3595083803" lon="34.6447881963"><ele>169.46</ele><time>2026-08-15T09:15:45Z</time></trkpt><trkpt lat="59.3594982382" lon="34.6448428463"><ele>169.27</ele><time>2026-08-15T09:16:17Z</time></trkpt><trkpt lat="59.3595373817" lon="34.6448515635"><ele>167.94</ele><time>2026-08-15T09:16:48Z</time></trkpt><trkpt lat="59.3595502898" lon="34.6448264178"><ele>167.08</ele><time>2026-08-15T09:17:36Z</time></trkpt><trkpt lat="59.3595779501" lon="34.6448751166"><ele>169.06</ele><time>2026-08-15T09:18:00Z</time></trkpt><trkpt lat="59.3594891857" lon="34.6448952332"><ele>170.56</ele><time>2026-08-15T09:18:29Z</time></trkpt><trkpt lat="59.3594883475" lon="34.6448811516"><ele>170.36</ele><time>2026-08-15T09:19:06Z</time></trkpt><trkpt lat="59.3594777025" lon="34.6448843367"><ele>170.06</ele><time>2026-08-15T09:19:39Z</time></trkpt><trkpt lat="59.3595365435" lon="34.6449181158"><ele>170.64</ele><time>2026-08-15T09:20:20Z</time></trkpt><trkpt lat="59.3595392257" lon="34.6449239831"><ele>170.59</ele><time>2026-08-15T09:20:52Z</time></trkpt><trkpt lat="59.3595466018" lon="34.6448454447"><ele>170.39</ele><time>2026-08-15T09:21:29Z</time></trkpt><trkpt lat="59.3594998308" lon="34.6448404994"><ele>167.69</ele><time>2026-08-15T09:22:05Z</time></trkpt><trkpt lat="59.3595216237" lon="34.6448481269"><ele>168.11</ele><time>2026-08-15T09:23:06Z</time></trkpt><trkpt lat="59.3594883475" lon="34.6448881086"><ele>169.44</ele><time>2026-08-15T09:23:36Z</time></trkpt><trkpt lat="59.3594446778" lon="34.6449591033"><ele>171.99</ele><time>2026-08-15T09:24:08Z</time></trkpt><trkpt lat="59.3594844919" lon="34.6449809801"><ele>171.86</ele><time>2026-08-15T09:24:41Z</time></trkpt><trkpt lat="59.3595331069" lon="34.6449816506"><ele>171.65</ele><time>2026-08-15T09:25:06Z</time></trkpt><trkpt lat="59.3595363759" lon="34.6449897811"><ele>171.44</ele><time>2026-08-15T09:25:13Z</time></trkpt><trkpt lat="59.3595921155" lon="34.6450746898"><ele>170.75</ele><time>2026-08-15T09:25:40Z</time></trkpt><trkpt lat="59.3595489487" lon="34.6449948940"><ele>171.50</ele><time>2026-08-15T09:26:14Z</time></trkpt><trkpt lat="59.3595251441" lon="34.6449524816"><ele>170.71</ele><time>2026-08-15T09:26:45Z</time></trkpt><trkpt lat="59.3594729248" lon="34.6449616179"><ele>168.01</ele><time>2026-08-15T09:27:16Z</time></trkpt><trkpt lat="59.3595041055" lon="34.6450036112"><ele>167.97</ele><time>2026-08-15T09:27:46Z</time></trkpt><trkpt lat="59.3595073745" lon="34.6449876856"><ele>166.79</ele><time>2026-08-15T09:28:13Z</time></trkpt><trkpt lat="59.3595233001" lon="34.6450167708"><ele>167.65</ele><time>2026-08-15T09:28:39Z</time></trkpt><trkpt lat="59.3595037702" lon="34.6449922957"><ele>167.82</ele><time>2026-08-15T09:29:14Z</time></trkpt><trkpt lat="59.3595144991" lon="34.6449970733"><ele>169.13</ele><time>2026-08-15T09:29:42Z</time></trkpt><trkpt lat="59.3595284130" lon="34.6449355502"><ele>169.79</ele><time>2026-08-15T09:30:12Z</time></trkpt><trkpt lat="59.3595352862" lon="34.6449770406"><ele>169.67</ele><time>2026-08-15T09:30:39Z</time></trkpt><trkpt lat="59.3595191929" lon="34.6449475363"><ele>171.27</ele><time>2026-08-15T09:31:03Z</time></trkpt><trkpt lat="59.3595523015" lon="34.6448943950"><ele>173.46</ele><time>2026-08-15T09:31:27Z</time></trkpt><trkpt lat="59.3596010003" lon="34.6446557622"><ele>172.65</ele><time>2026-08-15T09:31:47Z</time></trkpt><trkpt lat="59.3596493639" lon="34.6445135213"><ele>171.37</ele><time>2026-08-15T09:32:02Z</time></trkpt><trkpt lat="59.3597352784" lon="34.6444582008"><ele>169.10</ele><time>2026-08-15T09:32:18Z</time></trkpt><trkpt lat="59.3598470092" lon="34.6444034670"><ele>165.38</ele><time>2026-08-15T09:32:36Z</time></trkpt><trkpt lat="59.3599274755" lon="34.6442928258"><ele>164.72</ele><time>2026-08-15T09:32:52Z</time></trkpt><trkpt lat="59.3599296547" lon="34.6442658361"><ele>164.77</ele><time>2026-08-15T09:33:06Z</time></trkpt><trkpt lat="59.3599328399" lon="34.6442604717"><ele>165.83</ele><time>2026-08-15T09:33:32Z</time></trkpt><trkpt lat="59.3599476758" lon="34.6442588791"><ele>166.32</ele><time>2026-08-15T09:33:56Z</time></trkpt><trkpt lat="59.3600211851" lon="34.6442353260"><ele>167.61</ele><time>2026-08-15T09:34:19Z</time></trkpt><trkpt lat="59.3600926828" lon="34.6441556979"><ele>166.37</ele><time>2026-08-15T09:34:34Z</time></trkpt><trkpt lat="59.3601551279" lon="34.6441680193"><ele>165.50</ele><time>2026-08-15T09:34:50Z</time></trkpt><trkpt lat="59.3602338340" lon="34.6440389380"><ele>164.18</ele><time>2026-08-15T09:35:04Z</time></trkpt><trkpt lat="59.3602707982" lon="34.6439784206"><ele>163.28</ele><time>2026-08-15T09:35:17Z</time></trkpt><trkpt lat="59.3603068404" lon="34.6440861281"><ele>160.17</ele><time>2026-08-15T09:35:29Z</time></trkpt><trkpt lat="59.3603427149" lon="34.6442763135"><ele>157.39</ele><time>2026-08-15T09:35:51Z</time></trkpt><trkpt lat="59.3603959400" lon="34.6444645710"><ele>156.11</ele><time>2026-08-15T09:36:16Z</time></trkpt><trkpt lat="59.3604542781" lon="34.6444754675"><ele>155.19</ele><time>2026-08-15T09:36:46Z</time></trkpt><trkpt lat="59.3604255281" lon="34.6444758028"><ele>159.38</ele><time>2026-08-15T09:37:10Z</time></trkpt><trkpt lat="59.3603828643" lon="34.6446920559"><ele>162.51</ele><time>2026-08-15T09:37:31Z</time></trkpt><trkpt lat="59.3603732251" lon="34.6449539904"><ele>160.63</ele><time>2026-08-15T09:37:49Z</time></trkpt><trkpt lat="59.3604137935" lon="34.6451730933"><ele>159.03</ele><time>2026-08-15T09:38:07Z</time></trkpt><trkpt lat="59.3604235165" lon="34.6453446709"><ele>157.70</ele><time>2026-08-15T09:38:23Z</time></trkpt><trkpt lat="59.3603940122" lon="34.6454183478"><ele>159.66</ele><time>2026-08-15T09:38:43Z</time></trkpt><trkpt lat="59.3603613228" lon="34.6454915218"><ele>163.56</ele><time>2026-08-15T09:39:17Z</time></trkpt><trkpt lat="59.3603739794" lon="34.6454767697"><ele>166.57</ele><time>2026-08-15T09:39:38Z</time></trkpt><trkpt lat="59.3603888154" lon="34.6455623489"><ele>168.63</ele><time>2026-08-15T09:40:04Z</time></trkpt><trkpt lat="59.3604552001" lon="34.6458221879"><ele>168.28</ele><time>2026-08-15T09:40:22Z</time></trkpt><trkpt lat="59.3605339061" lon="34.6459930111"><ele>166.71</ele><time>2026-08-15T09:40:33Z</time></trkpt><trkpt lat="59.3606181443" lon="34.6462273691"><ele>164.03</ele><time>2026-08-15T09:40:52Z</time></trkpt><trkpt lat="59.3606574554" lon="34.6462460607"><ele>163.34</ele><time>2026-08-15T09:41:11Z</time></trkpt><trkpt lat="59.3606799189" lon="34.6463176422"><ele>165.89</ele><time>2026-08-15T09:41:35Z</time></trkpt><trkpt lat="59.3606608082" lon="34.6463216655"><ele>166.69</ele><time>2026-08-15T09:42:05Z</time></trkpt><trkpt lat="59.3606805056" lon="34.6464491542"><ele>168.48</ele><time>2026-08-15T09:42:32Z</time></trkpt><trkpt lat="59.3607105128" lon="34.6467110049"><ele>168.36</ele><time>2026-08-15T09:42:48Z</time></trkpt><trkpt lat="59.3607354909" lon="34.6470104903"><ele>166.33</ele><time>2026-08-15T09:43:08Z</time></trkpt><trkpt lat="59.3607426155" lon="34.6471829060"><ele>164.65</ele><time>2026-08-15T09:43:23Z</time></trkpt><trkpt lat="59.3607587926" lon="34.6472381428"><ele>167.95</ele><time>2026-08-15T09:43:51Z</time></trkpt><trkpt lat="59.3607452977" lon="34.6472615283"><ele>167.64</ele><time>2026-08-15T09:44:18Z</time></trkpt><trkpt lat="59.3607079145" lon="34.6473387256"><ele>166.52</ele><time>2026-08-15T09:44:46Z</time></trkpt><trkpt lat="59.3607473094" lon="34.6474683937"><ele>166.48</ele><time>2026-08-15T09:44:57Z</time></trkpt><trkpt lat="59.3608172983" lon="34.6477475110"><ele>166.24</ele><time>2026-08-15T09:45:13Z</time></trkpt><trkpt lat="59.3608533405" lon="34.6480836254"><ele>162.40</ele><time>2026-08-15T09:45:32Z</time></trkpt><trkpt lat="59.3608243391" lon="34.6481858008"><ele>163.19</ele><time>2026-08-15T09:45:53Z</time></trkpt><trkpt lat="59.3607945833" lon="34.6482478268"><ele>163.82</ele><time>2026-08-15T09:46:05Z</time></trkpt><trkpt lat="59.3607970979" lon="34.6482811868"><ele>164.61</ele><time>2026-08-15T09:46:29Z</time></trkpt><trkpt lat="59.3608135264" lon="34.6483234316"><ele>165.68</ele><time>2026-08-15T09:46:56Z</time></trkpt><trkpt lat="59.3608974293" lon="34.6484769043"><ele>166.43</ele><time>2026-08-15T09:47:16Z</time></trkpt><trkpt lat="59.3609690946" lon="34.6486801654"><ele>165.75</ele><time>2026-08-15T09:47:33Z</time></trkpt><trkpt lat="59.3609723635" lon="34.6486838534"><ele>165.73</ele><time>2026-08-15T09:47:34Z</time></trkpt><trkpt lat="59.3610090762" lon="34.6489580255"><ele>164.20</ele><time>2026-08-15T09:47:55Z</time></trkpt><trkpt lat="59.3610127643" lon="34.6489985101"><ele>163.31</ele><time>2026-08-15T09:47:59Z</time></trkpt><trkpt lat="59.3610108364" lon="34.6491135098"><ele>167.61</ele><time>2026-08-15T09:48:29Z</time></trkpt><trkpt lat="59.3609872833" lon="34.6491685789"><ele>170.73</ele><time>2026-08-15T09:48:55Z</time></trkpt><trkpt lat="59.3609834276" lon="34.6492066327"><ele>171.96</ele><time>2026-08-15T09:49:27Z</time></trkpt><trkpt lat="59.3610241637" lon="34.6493179444"><ele>170.88</ele><time>2026-08-15T09:49:37Z</time></trkpt><trkpt lat="59.3611151073" lon="34.6496458445"><ele>167.16</ele><time>2026-08-15T09:49:57Z</time></trkpt><trkpt lat="59.3610964157" lon="34.6499118023"><ele>163.60</ele><time>2026-08-15T09:50:13Z</time></trkpt><trkpt lat="59.3611348048" lon="34.6499626804"><ele>163.37</ele><time>2026-08-15T09:50:17Z</time></trkpt><trkpt lat="59.3611738645" lon="34.6501036640"><ele>162.11</ele><time>2026-08-15T09:50:30Z</time></trkpt><trkpt lat="59.3611751217" lon="34.6502031572"><ele>164.96</ele><time>2026-08-15T09:50:57Z</time></trkpt><trkpt lat="59.3611690030" lon="34.6501855552"><ele>165.65</ele><time>2026-08-15T09:51:23Z</time></trkpt><trkpt lat="59.3611626327" lon="34.6502263751"><ele>165.79</ele><time>2026-08-15T09:51:54Z</time></trkpt><trkpt lat="59.3612316996" lon="34.6505359188"><ele>166.56</ele><time>2026-08-15T09:52:13Z</time></trkpt><trkpt lat="59.3612360582" lon="34.6508250944"><ele>164.70</ele><time>2026-08-15T09:52:29Z</time></trkpt><trkpt lat="59.3613346294" lon="34.6511161141"><ele>160.74</ele><time>2026-08-15T09:52:51Z</time></trkpt><trkpt lat="59.3613690790" lon="34.6512413397"><ele>161.47</ele><time>2026-08-15T09:53:12Z</time></trkpt><trkpt lat="59.3613021914" lon="34.6513150167"><ele>161.91</ele><time>2026-08-15T09:53:30Z</time></trkpt><trkpt lat="59.3613537401" lon="34.6513736900"><ele>165.47</ele><time>2026-08-15T09:53:58Z</time></trkpt><trkpt lat="59.3614285905" lon="34.6513592731"><ele>172.72</ele><time>2026-08-15T09:54:24Z</time></trkpt><trkpt lat="59.3614242319" lon="34.6516276617"><ele>173.36</ele><time>2026-08-15T09:54:45Z</time></trkpt><trkpt lat="59.3613999244" lon="34.6518341918"><ele>172.36</ele><time>2026-08-15T09:55:03Z</time></trkpt><trkpt lat="59.3614565860" lon="34.6520993114"><ele>168.60</ele><time>2026-08-15T09:55:20Z</time></trkpt><trkpt lat="59.3614794686" lon="34.6522094496"><ele>167.45</ele><time>2026-08-15T09:55:42Z</time></trkpt><trkpt lat="59.3614673149" lon="34.6522625908"><ele>170.96</ele><time>2026-08-15T09:56:13Z</time></trkpt><trkpt lat="59.3614964839" lon="34.6521905065"><ele>171.00</ele><time>2026-08-15T09:56:47Z</time></trkpt><trkpt lat="59.3615162652" lon="34.6522972081"><ele>170.50</ele><time>2026-08-15T09:57:12Z</time></trkpt><trkpt lat="59.3616272416" lon="34.6526188217"><ele>168.66</ele><time>2026-08-15T09:57:33Z</time></trkpt><trkpt lat="59.3616258167" lon="34.6528613940"><ele>167.93</ele><time>2026-08-15T09:57:51Z</time></trkpt><trkpt lat="59.3616118189" lon="34.6530445386"><ele>167.08</ele><time>2026-08-15T09:58:12Z</time></trkpt><trkpt lat="59.3615680654" lon="34.6530701034"><ele>166.86</ele><time>2026-08-15T09:58:42Z</time></trkpt><trkpt lat="59.3615602702" lon="34.6531842649"><ele>168.65</ele><time>2026-08-15T09:59:11Z</time></trkpt><trkpt lat="59.3615885172" lon="34.6531642321"><ele>168.94</ele><time>2026-08-15T09:59:40Z</time></trkpt><trkpt lat="59.3616538960" lon="34.6533794794"><ele>170.16</ele><time>2026-08-15T09:59:57Z</time></trkpt><trkpt lat="59.3616165966" lon="34.6535772085"><ele>169.78</ele><time>2026-08-15T10:00:15Z</time></trkpt><trkpt lat="59.3616463523" lon="34.6537304297"><ele>169.44</ele><time>2026-08-15T10:00:36Z</time></trkpt><trkpt lat="59.3616933748" lon="34.6540162526"><ele>166.45</ele><time>2026-08-15T10:00:56Z</time></trkpt><trkpt lat="59.3616461009" lon="34.6540588327"><ele>167.58</ele><time>2026-08-15T10:01:24Z</time></trkpt><trkpt lat="59.3616615236" lon="34.6540746745"><ele>167.42</ele><time>2026-08-15T10:01:44Z</time></trkpt><trkpt lat="59.3617096357" lon="34.6540973056"><ele>166.66</ele><time>2026-08-15T10:02:14Z</time></trkpt><trkpt lat="59.3617434986" lon="34.6543256287"><ele>168.39</ele><time>2026-08-15T10:02:38Z</time></trkpt><trkpt lat="59.3618752621" lon="34.6546389442"><ele>167.03</ele><time>2026-08-15T10:02:58Z</time></trkpt><trkpt lat="59.3618631922" lon="34.6548929159"><ele>166.47</ele><time>2026-08-15T10:03:18Z</time></trkpt><trkpt lat="59.3618476018" lon="34.6550040599"><ele>168.10</ele><time>2026-08-15T10:03:50Z</time></trkpt><trkpt lat="59.3618827220" lon="34.6550001204"><ele>167.35</ele><time>2026-08-15T10:04:18Z</time></trkpt><trkpt lat="59.3618554808" lon="34.6549582109"><ele>166.90</ele><time>2026-08-15T10:04:49Z</time></trkpt><trkpt lat="59.3619351927" lon="34.6552408487"><ele>169.19</ele><time>2026-08-15T10:05:07Z</time></trkpt><trkpt lat="59.3619500287" lon="34.6553803235"><ele>169.44</ele><time>2026-08-15T10:05:14Z</time></trkpt><trkpt lat="59.3619978894" lon="34.6556717623"><ele>167.67</ele><time>2026-08-15T10:05:32Z</time></trkpt><trkpt lat="59.3620496895" lon="34.6558120754"><ele>165.91</ele><time>2026-08-15T10:05:46Z</time></trkpt><trkpt lat="59.3620346021" lon="34.6558430884"><ele>166.13</ele><time>2026-08-15T10:06:09Z</time></trkpt><trkpt lat="59.3620428164" lon="34.6558424179"><ele>166.45</ele><time>2026-08-15T10:06:40Z</time></trkpt><trkpt lat="59.3620528746" lon="34.6558782924"><ele>166.58</ele><time>2026-08-15T10:07:09Z</time></trkpt><trkpt lat="59.3620628491" lon="34.6559015941"><ele>166.25</ele><time>2026-08-15T10:07:27Z</time></trkpt><trkpt lat="59.3620823789" lon="34.6560039371"><ele>166.14</ele><time>2026-08-15T10:07:45Z</time></trkpt><trkpt lat="59.3621084467" lon="34.6561105549"><ele>166.69</ele><time>2026-08-15T10:08:05Z</time></trkpt><trkpt lat="59.3621805310" lon="34.6562378760"><ele>166.30</ele><time>2026-08-15T10:08:23Z</time></trkpt><trkpt lat="59.3622169923" lon="34.6563636046"><ele>165.55</ele><time>2026-08-15T10:08:40Z</time></trkpt><trkpt lat="59.3621862307" lon="34.6564247087"><ele>165.98</ele><time>2026-08-15T10:09:03Z</time></trkpt><trkpt lat="59.3621734064" lon="34.6565143950"><ele>165.99</ele><time>2026-08-15T10:09:21Z</time></trkpt><trkpt lat="59.3621414714" lon="34.6565353498"><ele>165.89</ele><time>2026-08-15T10:09:47Z</time></trkpt><trkpt lat="59.3621427286" lon="34.6565356012"><ele>165.87</ele><time>2026-08-15T10:09:49Z</time></trkpt><trkpt lat="59.3621060997" lon="34.6566780936"><ele>166.40</ele><time>2026-08-15T10:10:10Z</time></trkpt><trkpt lat="59.3620980531" lon="34.6567426343"><ele>166.57</ele><time>2026-08-15T10:10:37Z</time></trkpt><trkpt lat="59.3620848935" lon="34.6567369346"><ele>165.51</ele><time>2026-08-15T10:11:09Z</time></trkpt><trkpt lat="59.3620938621" lon="34.6567122079"><ele>165.69</ele><time>2026-08-15T10:11:37Z</time></trkpt><trkpt lat="59.3620965444" lon="34.6567313187"><ele>166.33</ele><time>2026-08-15T10:11:57Z</time></trkpt><trkpt lat="59.3621045072" lon="34.6567683667"><ele>167.19</ele><time>2026-08-15T10:12:11Z</time></trkpt><trkpt lat="59.3621113803" lon="34.6568455640"><ele>167.39</ele><time>2026-08-15T10:12:23Z</time></trkpt><trkpt lat="59.3621870689" lon="34.6568995435"><ele>166.40</ele><time>2026-08-15T10:12:36Z</time></trkpt><trkpt lat="59.3622670323" lon="34.6570932493"><ele>164.85</ele><time>2026-08-15T10:12:51Z</time></trkpt><trkpt lat="59.3622895796" lon="34.6573225781"><ele>163.98</ele><time>2026-08-15T10:13:05Z</time></trkpt><trkpt lat="59.3622910045" lon="34.6574027929"><ele>163.44</ele><time>2026-08-15T10:13:09Z</time></trkpt><trkpt lat="59.3622826226" lon="34.6575160325"><ele>162.74</ele><time>2026-08-15T10:13:24Z</time></trkpt><trkpt lat="59.3622851372" lon="34.6575095784"><ele>162.21</ele><time>2026-08-15T10:13:49Z</time></trkpt><trkpt lat="59.3622816168" lon="34.6575426869"><ele>162.39</ele><time>2026-08-15T10:14:08Z</time></trkpt><trkpt lat="59.3622829579" lon="34.6575483028"><ele>163.57</ele><time>2026-08-15T10:14:25Z</time></trkpt><trkpt lat="59.3622964527" lon="34.6575446147"><ele>164.39</ele><time>2026-08-15T10:14:43Z</time></trkpt><trkpt lat="59.3622883223" lon="34.6575250849"><ele>165.04</ele><time>2026-08-15T10:14:53Z</time></trkpt><trkpt lat="59.3622783478" lon="34.6575238276"><ele>165.71</ele><time>2026-08-15T10:15:03Z</time></trkpt><trkpt lat="59.3622896634" lon="34.6575194690"><ele>166.87</ele><time>2026-08-15T10:15:24Z</time></trkpt><trkpt lat="59.3622935191" lon="34.6575224865"><ele>166.83</ele><time>2026-08-15T10:15:27Z</time></trkpt><trkpt lat="59.3623128813" lon="34.6576270927"><ele>167.69</ele><time>2026-08-15T10:15:34Z</time></trkpt><trkpt lat="59.3623825349" lon="34.6577067208"><ele>167.58</ele><time>2026-08-15T10:15:45Z</time></trkpt><trkpt lat="59.3624268752" lon="34.6577527374"><ele>167.31</ele><time>2026-08-15T10:15:57Z</time></trkpt><trkpt lat="59.3624633364" lon="34.6578467824"><ele>166.81</ele><time>2026-08-15T10:16:12Z</time></trkpt><trkpt lat="59.3624583911" lon="34.6579670627"><ele>165.82</ele><time>2026-08-15T10:16:28Z</time></trkpt><trkpt lat="59.3625206687" lon="34.6580470260"><ele>165.51</ele><time>2026-08-15T10:16:42Z</time></trkpt><trkpt lat="59.3625199981" lon="34.6582521312"><ele>164.58</ele><time>2026-08-15T10:16:58Z</time></trkpt><trkpt lat="59.3624887336" lon="34.6583863255"><ele>162.93</ele><time>2026-08-15T10:17:13Z</time></trkpt><trkpt lat="59.3624641746" lon="34.6584904287"><ele>165.03</ele><time>2026-08-15T10:17:43Z</time></trkpt><trkpt lat="59.3624645099" lon="34.6584656183"><ele>165.83</ele><time>2026-08-15T10:18:12Z</time></trkpt><trkpt lat="59.3624597322" lon="34.6584567335"><ele>166.55</ele><time>2026-08-15T10:18:39Z</time></trkpt><trkpt lat="59.3625316489" lon="34.6586959530"><ele>166.62</ele><time>2026-08-15T10:18:57Z</time></trkpt><trkpt lat="59.3625640869" lon="34.6590718813"><ele>165.03</ele><time>2026-08-15T10:19:16Z</time></trkpt><trkpt lat="59.3626439665" lon="34.6594343148"><ele>161.79</ele><time>2026-08-15T10:19:39Z</time></trkpt><trkpt lat="59.3626489956" lon="34.6594520006"><ele>166.05</ele><time>2026-08-15T10:20:05Z</time></trkpt><trkpt lat="59.3626311421" lon="34.6594068222"><ele>169.56</ele><time>2026-08-15T10:20:34Z</time></trkpt><trkpt lat="59.3626629096" lon="34.6594872046"><ele>171.49</ele><time>2026-08-15T10:21:00Z</time></trkpt><trkpt lat="59.3627287913" lon="34.6598679945"><ele>170.44</ele><time>2026-08-15T10:21:21Z</time></trkpt><trkpt lat="59.3627906498" lon="34.6602646261"><ele>168.36</ele><time>2026-08-15T10:21:43Z</time></trkpt><trkpt lat="59.3628015462" lon="34.6604538057"><ele>169.38</ele><time>2026-08-15T10:22:11Z</time></trkpt><trkpt lat="59.3628148735" lon="34.6604614332"><ele>170.13</ele><time>2026-08-15T10:22:19Z</time></trkpt><trkpt lat="59.3628056534" lon="34.6604737546"><ele>172.48</ele><time>2026-08-15T10:22:46Z</time></trkpt><trkpt lat="59.3628500775" lon="34.6604890097"><ele>172.18</ele><time>2026-08-15T10:23:17Z</time></trkpt><trkpt lat="59.3628733791" lon="34.6605993155"><ele>173.84</ele><time>2026-08-15T10:23:40Z</time></trkpt><trkpt lat="59.3628688529" lon="34.6608842164"><ele>174.51</ele><time>2026-08-15T10:23:58Z</time></trkpt><trkpt lat="59.3628561124" lon="34.6610837057"><ele>173.63</ele><time>2026-08-15T10:24:12Z</time></trkpt><trkpt lat="59.3628755584" lon="34.6613949258"><ele>171.94</ele><time>2026-08-15T10:24:32Z</time></trkpt><trkpt lat="59.3628623150" lon="34.6614962630"><ele>174.31</ele><time>2026-08-15T10:24:52Z</time></trkpt><trkpt lat="59.3628770672" lon="34.6615591273"><ele>177.02</ele><time>2026-08-15T10:25:22Z</time></trkpt><trkpt lat="59.3629004527" lon="34.6615932416"><ele>178.69</ele><time>2026-08-15T10:25:54Z</time></trkpt><trkpt lat="59.3629872054" lon="34.6617996879"><ele>177.55</ele><time>2026-08-15T10:26:11Z</time></trkpt><trkpt lat="59.3630417716" lon="34.6621699166"><ele>175.12</ele><time>2026-08-15T10:26:30Z</time></trkpt><trkpt lat="59.3630823400" lon="34.6624337789"><ele>171.10</ele><time>2026-08-15T10:26:46Z</time></trkpt><trkpt lat="59.3630633131" lon="34.6625275724"><ele>171.03</ele><time>2026-08-15T10:27:10Z</time></trkpt><trkpt lat="59.3630856089" lon="34.6625198610"><ele>174.74</ele><time>2026-08-15T10:27:42Z</time></trkpt><trkpt lat="59.3630627263" lon="34.6625046059"><ele>175.52</ele><time>2026-08-15T10:28:10Z</time></trkpt><trkpt lat="59.3630721979" lon="34.6625890117"><ele>176.89</ele><time>2026-08-15T10:28:38Z</time></trkpt><trkpt lat="59.3631515745" lon="34.6627729945"><ele>176.26</ele><time>2026-08-15T10:28:56Z</time></trkpt><trkpt lat="59.3631982617" lon="34.6629044227"><ele>175.66</ele><time>2026-08-15T10:29:16Z</time></trkpt><trkpt lat="59.3632182945" lon="34.6629489306"><ele>175.27</ele><time>2026-08-15T10:29:19Z</time></trkpt><trkpt lat="59.3632886186" lon="34.6631488390"><ele>173.63</ele><time>2026-08-15T10:29:35Z</time></trkpt><trkpt lat="59.3632813264" lon="34.6631806064"><ele>173.35</ele><time>2026-08-15T10:29:37Z</time></trkpt><trkpt lat="59.3632721063" lon="34.6632430516"><ele>172.89</ele><time>2026-08-15T10:29:40Z</time></trkpt><trkpt lat="59.3632589467" lon="34.6633263677"><ele>172.32</ele><time>2026-08-15T10:29:56Z</time></trkpt><trkpt lat="59.3632577732" lon="34.6633317322"><ele>172.03</ele><time>2026-08-15T10:30:17Z</time></trkpt><trkpt lat="59.3632679991" lon="34.6633419581"><ele>172.19</ele><time>2026-08-15T10:30:50Z</time></trkpt><trkpt lat="59.3632868584" lon="34.6633478254"><ele>172.14</ele><time>2026-08-15T10:31:09Z</time></trkpt><trkpt lat="59.3633623794" lon="34.6635183133"><ele>172.59</ele><time>2026-08-15T10:31:21Z</time></trkpt><trkpt lat="59.3633916322" lon="34.6636297926"><ele>171.93</ele><time>2026-08-15T10:31:33Z</time></trkpt><trkpt lat="59.3635042012" lon="34.6637542639"><ele>171.01</ele><time>2026-08-15T10:31:48Z</time></trkpt><trkpt lat="59.3635353819" lon="34.6639418509"><ele>171.16</ele><time>2026-08-15T10:32:01Z</time></trkpt><trkpt lat="59.3635363877" lon="34.6641058009"><ele>170.66</ele><time>2026-08-15T10:32:13Z</time></trkpt><trkpt lat="59.3635079730" lon="34.6642620396"><ele>170.90</ele><time>2026-08-15T10:32:29Z</time></trkpt><trkpt lat="59.3635049555" lon="34.6642692480"><ele>170.97</ele><time>2026-08-15T10:32:47Z</time></trkpt><trkpt lat="59.3635127507" lon="34.6642785519"><ele>171.37</ele><time>2026-08-15T10:33:16Z</time></trkpt><trkpt lat="59.3635171931" lon="34.6643104870"><ele>172.98</ele><time>2026-08-15T10:33:52Z</time></trkpt><trkpt lat="59.3635290954" lon="34.6644590981"><ele>172.87</ele><time>2026-08-15T10:34:03Z</time></trkpt><trkpt lat="59.3635270000" lon="34.6646085475"><ele>172.17</ele><time>2026-08-15T10:34:11Z</time></trkpt><trkpt lat="59.3635393213" lon="34.6647685580"><ele>170.92</ele><time>2026-08-15T10:34:21Z</time></trkpt><trkpt lat="59.3635280896" lon="34.6648004092"><ele>170.70</ele><time>2026-08-15T10:34:23Z</time></trkpt><trkpt lat="59.3635141756" lon="34.6648978908"><ele>170.16</ele><time>2026-08-15T10:34:30Z</time></trkpt><trkpt lat="59.3635210488" lon="34.6649781894"><ele>170.01</ele><time>2026-08-15T10:34:34Z</time></trkpt><trkpt lat="59.3635073863" lon="34.6651957836"><ele>169.35</ele><time>2026-08-15T10:34:46Z</time></trkpt><trkpt lat="59.3634983338" lon="34.6652889065"><ele>169.75</ele><time>2026-08-15T10:35:01Z</time></trkpt><trkpt lat="59.3634934723" lon="34.6653153934"><ele>170.48</ele><time>2026-08-15T10:35:23Z</time></trkpt><trkpt lat="59.3634881917" lon="34.6653356776"><ele>170.86</ele><time>2026-08-15T10:35:51Z</time></trkpt><trkpt lat="59.3634964898" lon="34.6653673612"><ele>171.45</ele><time>2026-08-15T10:36:34Z</time></trkpt><trkpt lat="59.3635021057" lon="34.6654002182"><ele>171.40</ele><time>2026-08-15T10:36:36Z</time></trkpt><trkpt lat="59.3635717593" lon="34.6656575426"><ele>171.57</ele><time>2026-08-15T10:36:50Z</time></trkpt><trkpt lat="59.3635714240" lon="34.6657110192"><ele>171.56</ele><time>2026-08-15T10:36:53Z</time></trkpt><trkpt lat="59.3635868467" lon="34.6658107638"><ele>171.40</ele><time>2026-08-15T10:36:59Z</time></trkpt><trkpt lat="59.3636398204" lon="34.6659561899"><ele>169.79</ele><time>2026-08-15T10:37:09Z</time></trkpt><trkpt lat="59.3636824843" lon="34.6662358101"><ele>166.54</ele><time>2026-08-15T10:37:25Z</time></trkpt><trkpt lat="59.3636894412" lon="34.6663155220"><ele>168.44</ele><time>2026-08-15T10:37:41Z</time></trkpt><trkpt lat="59.3637079652" lon="34.6663294360"><ele>169.30</ele><time>2026-08-15T10:38:05Z</time></trkpt><trkpt lat="59.3637315184" lon="34.6663632151"><ele>169.74</ele><time>2026-08-15T10:38:31Z</time></trkpt><trkpt lat="59.3637275789" lon="34.6665208787"><ele>170.25</ele><time>2026-08-15T10:38:52Z</time></trkpt><trkpt lat="59.3637304287" lon="34.6665912028"><ele>169.96</ele><time>2026-08-15T10:38:56Z</time></trkpt><trkpt lat="59.3637333624" lon="34.6666392311"><ele>168.99</ele><time>2026-08-15T10:39:11Z</time></trkpt><trkpt lat="59.3637506291" lon="34.6665858384"><ele>168.45</ele><time>2026-08-15T10:39:31Z</time></trkpt><trkpt lat="59.3637559097" lon="34.6666648798"><ele>168.19</ele><time>2026-08-15T10:39:44Z</time></trkpt><trkpt lat="59.3637486175" lon="34.6668325178"><ele>168.50</ele><time>2026-08-15T10:40:05Z</time></trkpt><trkpt lat="59.3637519702" lon="34.6668414026"><ele>167.77</ele><time>2026-08-15T10:40:13Z</time></trkpt><trkpt lat="59.3637684826" lon="34.6671308298"><ele>166.04</ele><time>2026-08-15T10:40:31Z</time></trkpt><trkpt lat="59.3637740985" lon="34.6671746671"><ele>166.41</ele><time>2026-08-15T10:40:37Z</time></trkpt><trkpt lat="59.3637778703" lon="34.6672632638"><ele>166.70</ele><time>2026-08-15T10:40:51Z</time></trkpt><trkpt lat="59.3637730926" lon="34.6672825422"><ele>167.39</ele><time>2026-08-15T10:41:20Z</time></trkpt><trkpt lat="59.3637849111" lon="34.6672946960"><ele>169.11</ele><time>2026-08-15T10:41:44Z</time></trkpt><trkpt lat="59.3637996633" lon="34.6673548780"><ele>169.71</ele><time>2026-08-15T10:42:08Z</time></trkpt><trkpt lat="59.3638343643" lon="34.6676057484"><ele>169.23</ele><time>2026-08-15T10:42:24Z</time></trkpt><trkpt lat="59.3638868351" lon="34.6677841153"><ele>168.88</ele><time>2026-08-15T10:42:39Z</time></trkpt><trkpt lat="59.3638772797" lon="34.6679220814"><ele>167.17</ele><time>2026-08-15T10:42:50Z</time></trkpt><trkpt lat="59.3638456799" lon="34.6680551860"><ele>165.92</ele><time>2026-08-15T10:42:59Z</time></trkpt><trkpt lat="59.3638594262" lon="34.6682709362"><ele>165.53</ele><time>2026-08-15T10:43:12Z</time></trkpt><trkpt lat="59.3638597615" lon="34.6682795696"><ele>165.82</ele><time>2026-08-15T10:43:30Z</time></trkpt><trkpt lat="59.3638595939" lon="34.6682901308"><ele>166.68</ele><time>2026-08-15T10:44:02Z</time></trkpt><trkpt lat="59.3638637010" lon="34.6682825033"><ele>167.83</ele><time>2026-08-15T10:44:28Z</time></trkpt><trkpt lat="59.3638920318" lon="34.6684616245"><ele>168.44</ele><time>2026-08-15T10:44:43Z</time></trkpt><trkpt lat="59.3639497831" lon="34.6686883550"><ele>168.11</ele><time>2026-08-15T10:44:58Z</time></trkpt><trkpt lat="59.3639879208" lon="34.6688684821"><ele>167.74</ele><time>2026-08-15T10:45:09Z</time></trkpt><trkpt lat="59.3639905192" lon="34.6689062845"><ele>167.58</ele><time>2026-08-15T10:45:11Z</time></trkpt><trkpt lat="59.3640262261" lon="34.6690564044"><ele>167.36</ele><time>2026-08-15T10:45:20Z</time></trkpt><trkpt lat="59.3640822172" lon="34.6692233719"><ele>167.28</ele><time>2026-08-15T10:45:36Z</time></trkpt><trkpt lat="59.3640889227" lon="34.6692757588"><ele>166.99</ele><time>2026-08-15T10:45:49Z</time></trkpt><trkpt lat="59.3640869111" lon="34.6692674607"><ele>167.00</ele><time>2026-08-15T10:46:15Z</time></trkpt><trkpt lat="59.3640911859" lon="34.6692553908"><ele>166.18</ele><time>2026-08-15T10:46:47Z</time></trkpt><trkpt lat="59.3640993163" lon="34.6692600846"><ele>165.95</ele><time>2026-08-15T10:47:17Z</time></trkpt><trkpt lat="59.3641430698" lon="34.6693357732"><ele>167.49</ele><time>2026-08-15T10:47:44Z</time></trkpt><trkpt lat="59.3641479313" lon="34.6693706419"><ele>167.53</ele><time>2026-08-15T10:47:46Z</time></trkpt><trkpt lat="59.3641232047" lon="34.6696635894"><ele>166.89</ele><time>2026-08-15T10:48:03Z</time></trkpt><trkpt lat="59.3641144875" lon="34.6699484065"><ele>166.65</ele><time>2026-08-15T10:48:19Z</time></trkpt><trkpt lat="59.3641789444" lon="34.6701910626"><ele>165.80</ele><time>2026-08-15T10:48:34Z</time></trkpt><trkpt lat="59.3641768489" lon="34.6703697648"><ele>166.19</ele><time>2026-08-15T10:48:50Z</time></trkpt><trkpt lat="59.3641703948" lon="34.6704846807"><ele>164.70</ele><time>2026-08-15T10:49:08Z</time></trkpt><trkpt lat="59.3641761784" lon="34.6705461200"><ele>166.96</ele><time>2026-08-15T10:49:30Z</time></trkpt><trkpt lat="59.3642006535" lon="34.6705821622"><ele>170.09</ele><time>2026-08-15T10:49:52Z</time></trkpt><trkpt lat="59.3642120529" lon="34.6706063021"><ele>173.30</ele><time>2026-08-15T10:50:21Z</time></trkpt><trkpt lat="59.3642327562" lon="34.6705807373"><ele>174.23</ele><time>2026-08-15T10:50:48Z</time></trkpt><trkpt lat="59.3642276432" lon="34.6706643887"><ele>176.09</ele><time>2026-08-15T10:51:11Z</time></trkpt><trkpt lat="59.3642628472" lon="34.6708402410"><ele>176.47</ele><time>2026-08-15T10:51:29Z</time></trkpt><trkpt lat="59.3641875777" lon="34.6708529815"><ele>176.21</ele><time>2026-08-15T10:51:45Z</time></trkpt><trkpt lat="59.3641564809" lon="34.6710642893"><ele>175.00</ele><time>2026-08-15T10:52:02Z</time></trkpt><trkpt lat="59.3641945347" lon="34.6711585857"><ele>173.47</ele><time>2026-08-15T10:52:22Z</time></trkpt><trkpt lat="59.3641835544" lon="34.6711945441"><ele>173.91</ele><time>2026-08-15T10:52:42Z</time></trkpt><trkpt lat="59.3641703110" lon="34.6712108050"><ele>173.89</ele><time>2026-08-15T10:53:12Z</time></trkpt><trkpt lat="59.3641541339" lon="34.6711997408"><ele>174.07</ele><time>2026-08-15T10:53:32Z</time></trkpt><trkpt lat="59.3641425669" lon="34.6710591763"><ele>173.71</ele><time>2026-08-15T10:54:00Z</time></trkpt><trkpt lat="59.3641471770" lon="34.6708260756"><ele>172.70</ele><time>2026-08-15T10:54:17Z</time></trkpt><trkpt lat="59.3640594184" lon="34.6706232335"><ele>170.80</ele><time>2026-08-15T10:54:37Z</time></trkpt><trkpt lat="59.3638591748" lon="34.6705977526"><ele>166.78</ele><time>2026-08-15T10:54:57Z</time></trkpt><trkpt lat="59.3636435922" lon="34.6705985069"><ele>163.36</ele><time>2026-08-15T10:55:20Z</time></trkpt><trkpt lat="59.3634746969" lon="34.6706411708"><ele>161.86</ele><time>2026-08-15T10:55:38Z</time></trkpt><trkpt lat="59.3633602839" lon="34.6707033645"><ele>161.10</ele><time>2026-08-15T10:55:54Z</time></trkpt><trkpt lat="59.3632902950" lon="34.6706917137"><ele>160.48</ele><time>2026-08-15T10:56:12Z</time></trkpt><trkpt lat="59.3630970921" lon="34.6707858425"><ele>159.43</ele><time>2026-08-15T10:56:32Z</time></trkpt><trkpt lat="59.3629489001" lon="34.6710337792"><ele>159.36</ele><time>2026-08-15T10:56:52Z</time></trkpt><trkpt lat="59.3628639076" lon="34.6712139063"><ele>156.69</ele><time>2026-08-15T10:57:07Z</time></trkpt><trkpt lat="59.3627646659" lon="34.6713531297"><ele>154.13</ele><time>2026-08-15T10:57:21Z</time></trkpt><trkpt lat="59.3626851216" lon="34.6714045107"><ele>153.56</ele><time>2026-08-15T10:57:34Z</time></trkpt><trkpt lat="59.3626129534" lon="34.6715494338"><ele>152.44</ele><time>2026-08-15T10:57:49Z</time></trkpt><trkpt lat="59.3625289667" lon="34.6718697064"><ele>149.55</ele><time>2026-08-15T10:58:08Z</time></trkpt><trkpt lat="59.3624917511" lon="34.6720322315"><ele>148.16</ele><time>2026-08-15T10:58:24Z</time></trkpt><trkpt lat="59.3623915873" lon="34.6722287871"><ele>146.55</ele><time>2026-08-15T10:58:46Z</time></trkpt><trkpt lat="59.3622839637" lon="34.6724801604"><ele>146.02</ele><time>2026-08-15T10:59:03Z</time></trkpt><trkpt lat="59.3622169085" lon="34.6726830862"><ele>146.74</ele><time>2026-08-15T10:59:19Z</time></trkpt><trkpt lat="59.3621470872" lon="34.6729620360"><ele>146.93</ele><time>2026-08-15T10:59:40Z</time></trkpt><trkpt lat="59.3621497694" lon="34.6730325278"><ele>146.51</ele><time>2026-08-15T10:59:45Z</time></trkpt><trkpt lat="59.3621188402" lon="34.6736092027"><ele>148.29</ele><time>2026-08-15T11:00:08Z</time></trkpt><trkpt lat="59.3621811178" lon="34.6737612505"><ele>148.71</ele><time>2026-08-15T11:00:23Z</time></trkpt><trkpt lat="59.3622382823" lon="34.6737510245"><ele>149.65</ele><time>2026-08-15T11:00:44Z</time></trkpt><trkpt lat="59.3622350972" lon="34.6737646870"><ele>152.67</ele><time>2026-08-15T11:01:09Z</time></trkpt><trkpt lat="59.3622493464" lon="34.6737582330"><ele>160.41</ele><time>2026-08-15T11:01:39Z</time></trkpt><trkpt lat="59.3622880708" lon="34.6737527847"><ele>166.09</ele><time>2026-08-15T11:02:12Z</time></trkpt><trkpt lat="59.3623256218" lon="34.6737978794"><ele>169.58</ele><time>2026-08-15T11:02:44Z</time></trkpt><trkpt lat="59.3623418827" lon="34.6738073509"><ele>174.56</ele><time>2026-08-15T11:03:19Z</time></trkpt><trkpt lat="59.3622776773" lon="34.6737894975"><ele>176.80</ele><time>2026-08-15T11:03:53Z</time></trkpt><trkpt lat="59.3623065948" lon="34.6738254558"><ele>176.33</ele><time>2026-08-15T11:04:23Z</time></trkpt><trkpt lat="59.3623526953" lon="34.6738147270"><ele>177.81</ele><time>2026-08-15T11:04:57Z</time></trkpt><trkpt lat="59.3623651844" lon="34.6737921797"><ele>177.64</ele><time>2026-08-15T11:05:08Z</time></trkpt><trkpt lat="59.3623466603" lon="34.6737252083"><ele>177.41</ele><time>2026-08-15T11:05:41Z</time></trkpt><trkpt lat="59.3623981252" lon="34.6737334225"><ele>176.54</ele><time>2026-08-15T11:06:15Z</time></trkpt><trkpt lat="59.3623487558" lon="34.6737640165"><ele>177.28</ele><time>2026-08-15T11:06:41Z</time></trkpt><trkpt lat="59.3623897433" lon="34.6737744939"><ele>177.34</ele><time>2026-08-15T11:07:16Z</time></trkpt><trkpt lat="59.3623336684" lon="34.6737887431"><ele>175.07</ele><time>2026-08-15T11:07:49Z</time></trkpt></trkseg></trk></gpx>